<?xml version="1.0" encoding="UTF-8" standalone="no" ?>
<gpx xmlns="http://www.topografix.com/GPX/1/1" xmlns:xsi="http://www.w3.org/2001/XMLSchema-instance" xsi:schemaLocation="http://www.topografix.com/GPX/1/1 http://www.topografix.com/GPX/1/1/gpx.xsd" version="1.1" creator="VisuGPX - https://www.visugpx.com">
  <metadata>
    <name>transnawakienne 3</name>
    <desc><![CDATA[j\\\'ai encore pas réussi à virer mes traces précédentes, mais vous avez quand meme la transnawakienne 3. On a fait environ 45 km apparemment]]></desc>
  </metadata>
  <trk>
    <name><![CDATA[Tracé actuel: 15 SEPT 2012 14:13]]></name>
    <trkseg>
      <trkpt lat="49.28004" lon="3.21166">
        <ele>78.97</ele>
        <time>2012-09-15T12:13:34Z</time>
      </trkpt>
      <trkpt lat="49.28039" lon="3.21152">
        <ele>75.6</ele>
        <time>2012-09-15T12:13:42Z</time>
      </trkpt>
      <trkpt lat="49.28052" lon="3.21075">
        <ele>71.27</ele>
        <time>2012-09-15T12:13:55Z</time>
      </trkpt>
      <trkpt lat="49.28065" lon="3.2102">
        <ele>73.2</ele>
        <time>2012-09-15T12:14:08Z</time>
      </trkpt>
      <trkpt lat="49.28061" lon="3.20903">
        <ele>73.2</ele>
        <time>2012-09-15T12:14:23Z</time>
      </trkpt>
      <trkpt lat="49.2807" lon="3.20796">
        <ele>70.79</ele>
        <time>2012-09-15T12:14:38Z</time>
      </trkpt>
      <trkpt lat="49.28072" lon="3.2079">
        <ele>70.79</ele>
        <time>2012-09-15T12:14:39Z</time>
      </trkpt>
      <trkpt lat="49.28094" lon="3.2077">
        <ele>71.27</ele>
        <time>2012-09-15T12:14:45Z</time>
      </trkpt>
      <trkpt lat="49.28123" lon="3.20768">
        <ele>71.76</ele>
        <time>2012-09-15T12:14:51Z</time>
      </trkpt>
      <trkpt lat="49.28191" lon="3.20748">
        <ele>72.24</ele>
        <time>2012-09-15T12:15:05Z</time>
      </trkpt>
      <trkpt lat="49.28255" lon="3.20678">
        <ele>69.83</ele>
        <time>2012-09-15T12:15:22Z</time>
      </trkpt>
      <trkpt lat="49.28324" lon="3.20622">
        <ele>64.07</ele>
        <time>2012-09-15T12:15:41Z</time>
      </trkpt>
      <trkpt lat="49.28364" lon="3.20616">
        <ele>60.7</ele>
        <time>2012-09-15T12:15:50Z</time>
      </trkpt>
      <trkpt lat="49.28195" lon="3.20277">
        <ele>113.57</ele>
        <time>2012-09-15T12:16:00Z</time>
      </trkpt>
      <trkpt lat="49.28216" lon="3.20221">
        <ele>110.69</ele>
        <time>2012-09-15T12:16:13Z</time>
      </trkpt>
      <trkpt lat="49.28222" lon="3.20205">
        <ele>107.81</ele>
        <time>2012-09-15T12:16:18Z</time>
      </trkpt>
      <trkpt lat="49.28231" lon="3.20207">
        <ele>108.29</ele>
        <time>2012-09-15T12:16:24Z</time>
      </trkpt>
      <trkpt lat="49.28267" lon="3.20237">
        <ele>108.77</ele>
        <time>2012-09-15T12:16:37Z</time>
      </trkpt>
      <trkpt lat="49.28283" lon="3.20251">
        <ele>108.29</ele>
        <time>2012-09-15T12:16:40Z</time>
      </trkpt>
      <trkpt lat="49.28332" lon="3.20296">
        <ele>105.88</ele>
        <time>2012-09-15T12:16:54Z</time>
      </trkpt>
      <trkpt lat="49.28389" lon="3.20274">
        <ele>105.4</ele>
        <time>2012-09-15T12:17:06Z</time>
      </trkpt>
      <trkpt lat="49.28404" lon="3.20266">
        <ele>105.4</ele>
        <time>2012-09-15T12:17:09Z</time>
      </trkpt>
      <trkpt lat="49.2841" lon="3.20228">
        <ele>110.69</ele>
        <time>2012-09-15T12:17:16Z</time>
      </trkpt>
      <trkpt lat="49.28431" lon="3.20228">
        <ele>110.69</ele>
        <time>2012-09-15T12:17:23Z</time>
      </trkpt>
      <trkpt lat="49.28455" lon="3.20252">
        <ele>113.09</ele>
        <time>2012-09-15T12:17:40Z</time>
      </trkpt>
      <trkpt lat="49.28467" lon="3.20259">
        <ele>115.5</ele>
        <time>2012-09-15T12:17:49Z</time>
      </trkpt>
      <trkpt lat="49.28489" lon="3.20295">
        <ele>117.9</ele>
        <time>2012-09-15T12:18:02Z</time>
      </trkpt>
      <trkpt lat="49.285" lon="3.20304">
        <ele>120.3</ele>
        <time>2012-09-15T12:18:17Z</time>
      </trkpt>
      <trkpt lat="49.28519" lon="3.20322">
        <ele>114.53</ele>
        <time>2012-09-15T12:18:45Z</time>
      </trkpt>
      <trkpt lat="49.28522" lon="3.20325">
        <ele>110.69</ele>
        <time>2012-09-15T12:19:09Z</time>
      </trkpt>
      <trkpt lat="49.28522" lon="3.20324">
        <ele>110.21</ele>
        <time>2012-09-15T12:19:34Z</time>
      </trkpt>
      <trkpt lat="49.28523" lon="3.20325">
        <ele>109.25</ele>
        <time>2012-09-15T12:20:08Z</time>
      </trkpt>
      <trkpt lat="49.28537" lon="3.20349">
        <ele>108.29</ele>
        <time>2012-09-15T12:20:20Z</time>
      </trkpt>
      <trkpt lat="49.28568" lon="3.2039">
        <ele>106.84</ele>
        <time>2012-09-15T12:20:35Z</time>
      </trkpt>
      <trkpt lat="49.28599" lon="3.20428">
        <ele>107.32</ele>
        <time>2012-09-15T12:20:51Z</time>
      </trkpt>
      <trkpt lat="49.28638" lon="3.20469">
        <ele>109.25</ele>
        <time>2012-09-15T12:21:07Z</time>
      </trkpt>
      <trkpt lat="49.28685" lon="3.20475">
        <ele>106.36</ele>
        <time>2012-09-15T12:21:23Z</time>
      </trkpt>
      <trkpt lat="49.28716" lon="3.2046">
        <ele>109.25</ele>
        <time>2012-09-15T12:21:36Z</time>
      </trkpt>
      <trkpt lat="49.28743" lon="3.2043">
        <ele>111.65</ele>
        <time>2012-09-15T12:21:50Z</time>
      </trkpt>
      <trkpt lat="49.28776" lon="3.20384">
        <ele>113.57</ele>
        <time>2012-09-15T12:22:04Z</time>
      </trkpt>
      <trkpt lat="49.28802" lon="3.20355">
        <ele>115.5</ele>
        <time>2012-09-15T12:22:17Z</time>
      </trkpt>
      <trkpt lat="49.28824" lon="3.20326">
        <ele>117.42</ele>
        <time>2012-09-15T12:22:28Z</time>
      </trkpt>
      <trkpt lat="49.28877" lon="3.20277">
        <ele>118.38</ele>
        <time>2012-09-15T12:22:45Z</time>
      </trkpt>
      <trkpt lat="49.2888" lon="3.20274">
        <ele>118.38</ele>
        <time>2012-09-15T12:22:46Z</time>
      </trkpt>
      <trkpt lat="49.28951" lon="3.20213">
        <ele>122.22</ele>
        <time>2012-09-15T12:23:06Z</time>
      </trkpt>
      <trkpt lat="49.28999" lon="3.2017">
        <ele>124.63</ele>
        <time>2012-09-15T12:23:21Z</time>
      </trkpt>
      <trkpt lat="49.29016" lon="3.20155">
        <ele>124.63</ele>
        <time>2012-09-15T12:23:26Z</time>
      </trkpt>
      <trkpt lat="49.2903" lon="3.20143">
        <ele>124.15</ele>
        <time>2012-09-15T12:23:30Z</time>
      </trkpt>
      <trkpt lat="49.29044" lon="3.20131">
        <ele>124.15</ele>
        <time>2012-09-15T12:23:34Z</time>
      </trkpt>
      <trkpt lat="49.29057" lon="3.20118">
        <ele>124.63</ele>
        <time>2012-09-15T12:23:38Z</time>
      </trkpt>
      <trkpt lat="49.29106" lon="3.20074">
        <ele>125.59</ele>
        <time>2012-09-15T12:23:54Z</time>
      </trkpt>
      <trkpt lat="49.29154" lon="3.20031">
        <ele>125.11</ele>
        <time>2012-09-15T12:24:10Z</time>
      </trkpt>
      <trkpt lat="49.29193" lon="3.19999">
        <ele>125.59</ele>
        <time>2012-09-15T12:24:26Z</time>
      </trkpt>
      <trkpt lat="49.29227" lon="3.19969">
        <ele>129.43</ele>
        <time>2012-09-15T12:24:38Z</time>
      </trkpt>
      <trkpt lat="49.29238" lon="3.1996">
        <ele>131.36</ele>
        <time>2012-09-15T12:24:46Z</time>
      </trkpt>
      <trkpt lat="49.2924" lon="3.19957">
        <ele>131.84</ele>
        <time>2012-09-15T12:24:51Z</time>
      </trkpt>
      <trkpt lat="49.29209" lon="3.19987">
        <ele>132.32</ele>
        <time>2012-09-15T12:25:03Z</time>
      </trkpt>
      <trkpt lat="49.29145" lon="3.20043">
        <ele>133.76</ele>
        <time>2012-09-15T12:25:15Z</time>
      </trkpt>
      <trkpt lat="49.2904" lon="3.20137">
        <ele>133.76</ele>
        <time>2012-09-15T12:25:33Z</time>
      </trkpt>
      <trkpt lat="49.28966" lon="3.20201">
        <ele>130.88</ele>
        <time>2012-09-15T12:25:46Z</time>
      </trkpt>
      <trkpt lat="49.28949" lon="3.20216">
        <ele>129.92</ele>
        <time>2012-09-15T12:25:49Z</time>
      </trkpt>
      <trkpt lat="49.28875" lon="3.20282">
        <ele>130.4</ele>
        <time>2012-09-15T12:26:02Z</time>
      </trkpt>
      <trkpt lat="49.28819" lon="3.20335">
        <ele>132.32</ele>
        <time>2012-09-15T12:26:13Z</time>
      </trkpt>
      <trkpt lat="49.28817" lon="3.20367">
        <ele>132.32</ele>
        <time>2012-09-15T12:26:20Z</time>
      </trkpt>
      <trkpt lat="49.2882" lon="3.2037">
        <ele>132.32</ele>
        <time>2012-09-15T12:26:21Z</time>
      </trkpt>
      <trkpt lat="49.2885" lon="3.20396">
        <ele>129.92</ele>
        <time>2012-09-15T12:26:32Z</time>
      </trkpt>
      <trkpt lat="49.28887" lon="3.20428">
        <ele>131.84</ele>
        <time>2012-09-15T12:26:43Z</time>
      </trkpt>
      <trkpt lat="49.28938" lon="3.20469">
        <ele>134.24</ele>
        <time>2012-09-15T12:26:58Z</time>
      </trkpt>
      <trkpt lat="49.2895" lon="3.20478">
        <ele>134.24</ele>
        <time>2012-09-15T12:27:01Z</time>
      </trkpt>
      <trkpt lat="49.28974" lon="3.20498">
        <ele>135.2</ele>
        <time>2012-09-15T12:27:08Z</time>
      </trkpt>
      <trkpt lat="49.29016" lon="3.20531">
        <ele>136.16</ele>
        <time>2012-09-15T12:27:21Z</time>
      </trkpt>
      <trkpt lat="49.29051" lon="3.20562">
        <ele>136.64</ele>
        <time>2012-09-15T12:27:33Z</time>
      </trkpt>
      <trkpt lat="49.29085" lon="3.20591">
        <ele>138.09</ele>
        <time>2012-09-15T12:27:45Z</time>
      </trkpt>
      <trkpt lat="49.2912" lon="3.20621">
        <ele>139.53</ele>
        <time>2012-09-15T12:27:59Z</time>
      </trkpt>
      <trkpt lat="49.29154" lon="3.20647">
        <ele>139.05</ele>
        <time>2012-09-15T12:28:13Z</time>
      </trkpt>
      <trkpt lat="49.29188" lon="3.20675">
        <ele>137.13</ele>
        <time>2012-09-15T12:28:24Z</time>
      </trkpt>
      <trkpt lat="49.29216" lon="3.20701">
        <ele>137.13</ele>
        <time>2012-09-15T12:28:32Z</time>
      </trkpt>
      <trkpt lat="49.29229" lon="3.20711">
        <ele>137.13</ele>
        <time>2012-09-15T12:28:35Z</time>
      </trkpt>
      <trkpt lat="49.29238" lon="3.20718">
        <ele>137.13</ele>
        <time>2012-09-15T12:28:37Z</time>
      </trkpt>
      <trkpt lat="49.29283" lon="3.20757">
        <ele>138.09</ele>
        <time>2012-09-15T12:28:49Z</time>
      </trkpt>
      <trkpt lat="49.29337" lon="3.20803">
        <ele>138.57</ele>
        <time>2012-09-15T12:29:04Z</time>
      </trkpt>
      <trkpt lat="49.29398" lon="3.20859">
        <ele>140.49</ele>
        <time>2012-09-15T12:29:16Z</time>
      </trkpt>
      <trkpt lat="49.29472" lon="3.20918">
        <ele>141.45</ele>
        <time>2012-09-15T12:29:32Z</time>
      </trkpt>
      <trkpt lat="49.29513" lon="3.20954">
        <ele>140.49</ele>
        <time>2012-09-15T12:29:41Z</time>
      </trkpt>
      <trkpt lat="49.29522" lon="3.20961">
        <ele>140.49</ele>
        <time>2012-09-15T12:29:43Z</time>
      </trkpt>
      <trkpt lat="49.2954" lon="3.20976">
        <ele>140.49</ele>
        <time>2012-09-15T12:29:47Z</time>
      </trkpt>
      <trkpt lat="49.29556" lon="3.2099">
        <ele>140.49</ele>
        <time>2012-09-15T12:29:51Z</time>
      </trkpt>
      <trkpt lat="49.2959" lon="3.21018">
        <ele>141.45</ele>
        <time>2012-09-15T12:29:59Z</time>
      </trkpt>
      <trkpt lat="49.29631" lon="3.21054">
        <ele>143.85</ele>
        <time>2012-09-15T12:30:09Z</time>
      </trkpt>
      <trkpt lat="49.2967" lon="3.21089">
        <ele>146.26</ele>
        <time>2012-09-15T12:30:19Z</time>
      </trkpt>
      <trkpt lat="49.29685" lon="3.21102">
        <ele>147.22</ele>
        <time>2012-09-15T12:30:23Z</time>
      </trkpt>
      <trkpt lat="49.29722" lon="3.21133">
        <ele>149.14</ele>
        <time>2012-09-15T12:30:34Z</time>
      </trkpt>
      <trkpt lat="49.29768" lon="3.21171">
        <ele>148.66</ele>
        <time>2012-09-15T12:30:47Z</time>
      </trkpt>
      <trkpt lat="49.29812" lon="3.21208">
        <ele>148.18</ele>
        <time>2012-09-15T12:31:01Z</time>
      </trkpt>
      <trkpt lat="49.29847" lon="3.2124">
        <ele>148.66</ele>
        <time>2012-09-15T12:31:12Z</time>
      </trkpt>
      <trkpt lat="49.2989" lon="3.21276">
        <ele>149.62</ele>
        <time>2012-09-15T12:31:25Z</time>
      </trkpt>
      <trkpt lat="49.29943" lon="3.21321">
        <ele>152.03</ele>
        <time>2012-09-15T12:31:41Z</time>
      </trkpt>
      <trkpt lat="49.29998" lon="3.21366">
        <ele>152.03</ele>
        <time>2012-09-15T12:31:55Z</time>
      </trkpt>
      <trkpt lat="49.30023" lon="3.21388">
        <ele>151.54</ele>
        <time>2012-09-15T12:32:01Z</time>
      </trkpt>
      <trkpt lat="49.30034" lon="3.21421">
        <ele>151.54</ele>
        <time>2012-09-15T12:32:06Z</time>
      </trkpt>
      <trkpt lat="49.30034" lon="3.21435">
        <ele>151.54</ele>
        <time>2012-09-15T12:32:08Z</time>
      </trkpt>
      <trkpt lat="49.30032" lon="3.21449">
        <ele>151.54</ele>
        <time>2012-09-15T12:32:10Z</time>
      </trkpt>
      <trkpt lat="49.30029" lon="3.21538">
        <ele>150.58</ele>
        <time>2012-09-15T12:32:22Z</time>
      </trkpt>
      <trkpt lat="49.30029" lon="3.2156">
        <ele>149.62</ele>
        <time>2012-09-15T12:32:25Z</time>
      </trkpt>
      <trkpt lat="49.30023" lon="3.21658">
        <ele>146.74</ele>
        <time>2012-09-15T12:32:38Z</time>
      </trkpt>
      <trkpt lat="49.3002" lon="3.21662">
        <ele>146.26</ele>
        <time>2012-09-15T12:32:52Z</time>
      </trkpt>
      <trkpt lat="49.3002" lon="3.21662">
        <ele>144.82</ele>
        <time>2012-09-15T12:33:26Z</time>
      </trkpt>
      <trkpt lat="49.30023" lon="3.21675">
        <ele>145.3</ele>
        <time>2012-09-15T12:33:43Z</time>
      </trkpt>
      <trkpt lat="49.30023" lon="3.21686">
        <ele>145.3</ele>
        <time>2012-09-15T12:33:45Z</time>
      </trkpt>
      <trkpt lat="49.30016" lon="3.21743">
        <ele>146.26</ele>
        <time>2012-09-15T12:33:53Z</time>
      </trkpt>
      <trkpt lat="49.30039" lon="3.21816">
        <ele>146.74</ele>
        <time>2012-09-15T12:34:03Z</time>
      </trkpt>
      <trkpt lat="49.30079" lon="3.21916">
        <ele>147.22</ele>
        <time>2012-09-15T12:34:17Z</time>
      </trkpt>
      <trkpt lat="49.30115" lon="3.22001">
        <ele>146.74</ele>
        <time>2012-09-15T12:34:28Z</time>
      </trkpt>
      <trkpt lat="49.30161" lon="3.22117">
        <ele>144.34</ele>
        <time>2012-09-15T12:34:41Z</time>
      </trkpt>
      <trkpt lat="49.30206" lon="3.22223">
        <ele>141.93</ele>
        <time>2012-09-15T12:34:52Z</time>
      </trkpt>
      <trkpt lat="49.30248" lon="3.2232">
        <ele>140.49</ele>
        <time>2012-09-15T12:35:03Z</time>
      </trkpt>
      <trkpt lat="49.30284" lon="3.22412">
        <ele>140.01</ele>
        <time>2012-09-15T12:35:15Z</time>
      </trkpt>
      <trkpt lat="49.30293" lon="3.22437">
        <ele>140.49</ele>
        <time>2012-09-15T12:35:19Z</time>
      </trkpt>
      <trkpt lat="49.3033" lon="3.22527">
        <ele>142.89</ele>
        <time>2012-09-15T12:35:34Z</time>
      </trkpt>
      <trkpt lat="49.30357" lon="3.22587">
        <ele>145.3</ele>
        <time>2012-09-15T12:35:45Z</time>
      </trkpt>
      <trkpt lat="49.30393" lon="3.22679">
        <ele>147.7</ele>
        <time>2012-09-15T12:36:00Z</time>
      </trkpt>
      <trkpt lat="49.30429" lon="3.22769">
        <ele>148.66</ele>
        <time>2012-09-15T12:36:12Z</time>
      </trkpt>
      <trkpt lat="49.3045" lon="3.22822">
        <ele>148.66</ele>
        <time>2012-09-15T12:36:20Z</time>
      </trkpt>
      <trkpt lat="49.30479" lon="3.22894">
        <ele>150.1</ele>
        <time>2012-09-15T12:36:32Z</time>
      </trkpt>
      <trkpt lat="49.30508" lon="3.22962">
        <ele>152.03</ele>
        <time>2012-09-15T12:36:45Z</time>
      </trkpt>
      <trkpt lat="49.30533" lon="3.2302">
        <ele>152.51</ele>
        <time>2012-09-15T12:36:58Z</time>
      </trkpt>
      <trkpt lat="49.3056" lon="3.23089">
        <ele>151.54</ele>
        <time>2012-09-15T12:37:14Z</time>
      </trkpt>
      <trkpt lat="49.30578" lon="3.23128">
        <ele>150.58</ele>
        <time>2012-09-15T12:37:21Z</time>
      </trkpt>
      <trkpt lat="49.30618" lon="3.23191">
        <ele>150.1</ele>
        <time>2012-09-15T12:37:32Z</time>
      </trkpt>
      <trkpt lat="49.30664" lon="3.23262">
        <ele>151.54</ele>
        <time>2012-09-15T12:37:45Z</time>
      </trkpt>
      <trkpt lat="49.30721" lon="3.23346">
        <ele>150.1</ele>
        <time>2012-09-15T12:38:02Z</time>
      </trkpt>
      <trkpt lat="49.30782" lon="3.23432">
        <ele>148.18</ele>
        <time>2012-09-15T12:38:19Z</time>
      </trkpt>
      <trkpt lat="49.30837" lon="3.23516">
        <ele>148.18</ele>
        <time>2012-09-15T12:38:32Z</time>
      </trkpt>
      <trkpt lat="49.3089" lon="3.23598">
        <ele>148.18</ele>
        <time>2012-09-15T12:38:45Z</time>
      </trkpt>
      <trkpt lat="49.30942" lon="3.23679">
        <ele>148.18</ele>
        <time>2012-09-15T12:38:56Z</time>
      </trkpt>
      <trkpt lat="49.30995" lon="3.23759">
        <ele>148.66</ele>
        <time>2012-09-15T12:39:08Z</time>
      </trkpt>
      <trkpt lat="49.31041" lon="3.23828">
        <ele>149.14</ele>
        <time>2012-09-15T12:39:18Z</time>
      </trkpt>
      <trkpt lat="49.311" lon="3.23918">
        <ele>147.7</ele>
        <time>2012-09-15T12:39:31Z</time>
      </trkpt>
      <trkpt lat="49.31159" lon="3.24008">
        <ele>146.74</ele>
        <time>2012-09-15T12:39:44Z</time>
      </trkpt>
      <trkpt lat="49.31214" lon="3.2409">
        <ele>146.26</ele>
        <time>2012-09-15T12:39:56Z</time>
      </trkpt>
      <trkpt lat="49.31268" lon="3.2417">
        <ele>144.82</ele>
        <time>2012-09-15T12:40:07Z</time>
      </trkpt>
      <trkpt lat="49.31323" lon="3.24254">
        <ele>143.37</ele>
        <time>2012-09-15T12:40:19Z</time>
      </trkpt>
      <trkpt lat="49.31374" lon="3.24333">
        <ele>144.82</ele>
        <time>2012-09-15T12:40:31Z</time>
      </trkpt>
      <trkpt lat="49.31395" lon="3.24364">
        <ele>145.3</ele>
        <time>2012-09-15T12:40:36Z</time>
      </trkpt>
      <trkpt lat="49.31453" lon="3.2445">
        <ele>141.93</ele>
        <time>2012-09-15T12:40:51Z</time>
      </trkpt>
      <trkpt lat="49.31508" lon="3.2453">
        <ele>140.49</ele>
        <time>2012-09-15T12:41:06Z</time>
      </trkpt>
      <trkpt lat="49.31553" lon="3.24597">
        <ele>141.45</ele>
        <time>2012-09-15T12:41:19Z</time>
      </trkpt>
      <trkpt lat="49.31609" lon="3.24685">
        <ele>144.34</ele>
        <time>2012-09-15T12:41:37Z</time>
      </trkpt>
      <trkpt lat="49.31651" lon="3.2475">
        <ele>146.26</ele>
        <time>2012-09-15T12:41:50Z</time>
      </trkpt>
      <trkpt lat="49.31682" lon="3.24798">
        <ele>149.14</ele>
        <time>2012-09-15T12:42:03Z</time>
      </trkpt>
      <trkpt lat="49.31727" lon="3.24866">
        <ele>152.51</ele>
        <time>2012-09-15T12:42:16Z</time>
      </trkpt>
      <trkpt lat="49.3177" lon="3.24936">
        <ele>154.91</ele>
        <time>2012-09-15T12:42:30Z</time>
      </trkpt>
      <trkpt lat="49.31846" lon="3.25051">
        <ele>153.47</ele>
        <time>2012-09-15T12:42:51Z</time>
      </trkpt>
      <trkpt lat="49.31928" lon="3.25172">
        <ele>151.06</ele>
        <time>2012-09-15T12:43:12Z</time>
      </trkpt>
      <trkpt lat="49.31963" lon="3.25225">
        <ele>152.03</ele>
        <time>2012-09-15T12:43:26Z</time>
      </trkpt>
      <trkpt lat="49.31969" lon="3.25233">
        <ele>152.03</ele>
        <time>2012-09-15T12:43:28Z</time>
      </trkpt>
      <trkpt lat="49.3202" lon="3.25312">
        <ele>152.03</ele>
        <time>2012-09-15T12:43:41Z</time>
      </trkpt>
      <trkpt lat="49.32079" lon="3.25402">
        <ele>150.58</ele>
        <time>2012-09-15T12:43:55Z</time>
      </trkpt>
      <trkpt lat="49.32131" lon="3.2548">
        <ele>150.58</ele>
        <time>2012-09-15T12:44:08Z</time>
      </trkpt>
      <trkpt lat="49.32137" lon="3.2549">
        <ele>150.58</ele>
        <time>2012-09-15T12:44:10Z</time>
      </trkpt>
      <trkpt lat="49.32187" lon="3.25565">
        <ele>151.54</ele>
        <time>2012-09-15T12:44:30Z</time>
      </trkpt>
      <trkpt lat="49.32225" lon="3.25624">
        <ele>151.54</ele>
        <time>2012-09-15T12:44:46Z</time>
      </trkpt>
      <trkpt lat="49.32243" lon="3.25651">
        <ele>153.95</ele>
        <time>2012-09-15T12:45:02Z</time>
      </trkpt>
      <trkpt lat="49.32263" lon="3.25686">
        <ele>154.91</ele>
        <time>2012-09-15T12:45:21Z</time>
      </trkpt>
      <trkpt lat="49.32264" lon="3.25692">
        <ele>154.91</ele>
        <time>2012-09-15T12:45:23Z</time>
      </trkpt>
      <trkpt lat="49.32246" lon="3.25735">
        <ele>155.39</ele>
        <time>2012-09-15T12:45:34Z</time>
      </trkpt>
      <trkpt lat="49.32208" lon="3.25815">
        <ele>155.39</ele>
        <time>2012-09-15T12:45:47Z</time>
      </trkpt>
      <trkpt lat="49.32172" lon="3.25887">
        <ele>154.43</ele>
        <time>2012-09-15T12:45:57Z</time>
      </trkpt>
      <trkpt lat="49.32159" lon="3.25917">
        <ele>154.43</ele>
        <time>2012-09-15T12:46:01Z</time>
      </trkpt>
      <trkpt lat="49.32156" lon="3.25925">
        <ele>153.95</ele>
        <time>2012-09-15T12:46:02Z</time>
      </trkpt>
      <trkpt lat="49.32145" lon="3.25956">
        <ele>153.47</ele>
        <time>2012-09-15T12:46:06Z</time>
      </trkpt>
      <trkpt lat="49.32112" lon="3.26041">
        <ele>152.51</ele>
        <time>2012-09-15T12:46:17Z</time>
      </trkpt>
      <trkpt lat="49.3208" lon="3.26127">
        <ele>151.54</ele>
        <time>2012-09-15T12:46:27Z</time>
      </trkpt>
      <trkpt lat="49.32077" lon="3.26135">
        <ele>151.54</ele>
        <time>2012-09-15T12:46:28Z</time>
      </trkpt>
      <trkpt lat="49.32037" lon="3.26239">
        <ele>151.54</ele>
        <time>2012-09-15T12:46:40Z</time>
      </trkpt>
      <trkpt lat="49.32027" lon="3.26267">
        <ele>151.54</ele>
        <time>2012-09-15T12:46:43Z</time>
      </trkpt>
      <trkpt lat="49.32024" lon="3.26276">
        <ele>151.54</ele>
        <time>2012-09-15T12:46:44Z</time>
      </trkpt>
      <trkpt lat="49.31995" lon="3.26347">
        <ele>151.06</ele>
        <time>2012-09-15T12:46:52Z</time>
      </trkpt>
      <trkpt lat="49.31992" lon="3.26356">
        <ele>151.54</ele>
        <time>2012-09-15T12:46:53Z</time>
      </trkpt>
      <trkpt lat="49.3199" lon="3.26365">
        <ele>151.06</ele>
        <time>2012-09-15T12:46:54Z</time>
      </trkpt>
      <trkpt lat="49.31967" lon="3.26424">
        <ele>151.54</ele>
        <time>2012-09-15T12:47:01Z</time>
      </trkpt>
      <trkpt lat="49.31964" lon="3.26431">
        <ele>151.54</ele>
        <time>2012-09-15T12:47:02Z</time>
      </trkpt>
      <trkpt lat="49.3193" lon="3.26519">
        <ele>154.43</ele>
        <time>2012-09-15T12:47:15Z</time>
      </trkpt>
      <trkpt lat="49.31905" lon="3.26589">
        <ele>156.35</ele>
        <time>2012-09-15T12:47:28Z</time>
      </trkpt>
      <trkpt lat="49.31906" lon="3.26594">
        <ele>155.87</ele>
        <time>2012-09-15T12:47:29Z</time>
      </trkpt>
      <trkpt lat="49.31909" lon="3.26599">
        <ele>154.91</ele>
        <time>2012-09-15T12:47:30Z</time>
      </trkpt>
      <trkpt lat="49.31914" lon="3.26603">
        <ele>154.43</ele>
        <time>2012-09-15T12:47:31Z</time>
      </trkpt>
      <trkpt lat="49.3193" lon="3.26611">
        <ele>153.47</ele>
        <time>2012-09-15T12:47:34Z</time>
      </trkpt>
      <trkpt lat="49.31935" lon="3.26614">
        <ele>152.99</ele>
        <time>2012-09-15T12:47:35Z</time>
      </trkpt>
      <trkpt lat="49.31941" lon="3.26617">
        <ele>152.99</ele>
        <time>2012-09-15T12:47:36Z</time>
      </trkpt>
      <trkpt lat="49.31982" lon="3.26653">
        <ele>152.51</ele>
        <time>2012-09-15T12:47:44Z</time>
      </trkpt>
      <trkpt lat="49.31987" lon="3.26658">
        <ele>152.51</ele>
        <time>2012-09-15T12:47:45Z</time>
      </trkpt>
      <trkpt lat="49.32024" lon="3.26722">
        <ele>152.03</ele>
        <time>2012-09-15T12:47:55Z</time>
      </trkpt>
      <trkpt lat="49.32042" lon="3.26762">
        <ele>152.03</ele>
        <time>2012-09-15T12:48:01Z</time>
      </trkpt>
      <trkpt lat="49.32073" lon="3.26837">
        <ele>151.54</ele>
        <time>2012-09-15T12:48:11Z</time>
      </trkpt>
      <trkpt lat="49.32106" lon="3.26928">
        <ele>150.1</ele>
        <time>2012-09-15T12:48:22Z</time>
      </trkpt>
      <trkpt lat="49.32135" lon="3.27012">
        <ele>149.14</ele>
        <time>2012-09-15T12:48:32Z</time>
      </trkpt>
      <trkpt lat="49.32163" lon="3.27088">
        <ele>148.18</ele>
        <time>2012-09-15T12:48:41Z</time>
      </trkpt>
      <trkpt lat="49.322" lon="3.27168">
        <ele>146.74</ele>
        <time>2012-09-15T12:48:50Z</time>
      </trkpt>
      <trkpt lat="49.32249" lon="3.27268">
        <ele>145.3</ele>
        <time>2012-09-15T12:49:02Z</time>
      </trkpt>
      <trkpt lat="49.32279" lon="3.27361">
        <ele>145.78</ele>
        <time>2012-09-15T12:49:13Z</time>
      </trkpt>
      <trkpt lat="49.32289" lon="3.2739">
        <ele>145.3</ele>
        <time>2012-09-15T12:49:16Z</time>
      </trkpt>
      <trkpt lat="49.32317" lon="3.27484">
        <ele>144.34</ele>
        <time>2012-09-15T12:49:26Z</time>
      </trkpt>
      <trkpt lat="49.32344" lon="3.27566">
        <ele>143.37</ele>
        <time>2012-09-15T12:49:35Z</time>
      </trkpt>
      <trkpt lat="49.32347" lon="3.27575">
        <ele>143.37</ele>
        <time>2012-09-15T12:49:36Z</time>
      </trkpt>
      <trkpt lat="49.32379" lon="3.27673">
        <ele>143.37</ele>
        <time>2012-09-15T12:49:47Z</time>
      </trkpt>
      <trkpt lat="49.32408" lon="3.27763">
        <ele>143.85</ele>
        <time>2012-09-15T12:49:58Z</time>
      </trkpt>
      <trkpt lat="49.32433" lon="3.27837">
        <ele>144.82</ele>
        <time>2012-09-15T12:50:08Z</time>
      </trkpt>
      <trkpt lat="49.32452" lon="3.27896">
        <ele>147.22</ele>
        <time>2012-09-15T12:50:16Z</time>
      </trkpt>
      <trkpt lat="49.32481" lon="3.27985">
        <ele>149.62</ele>
        <time>2012-09-15T12:50:28Z</time>
      </trkpt>
      <trkpt lat="49.32483" lon="3.27993">
        <ele>149.62</ele>
        <time>2012-09-15T12:50:29Z</time>
      </trkpt>
      <trkpt lat="49.32508" lon="3.28069">
        <ele>151.54</ele>
        <time>2012-09-15T12:50:40Z</time>
      </trkpt>
      <trkpt lat="49.32529" lon="3.28134">
        <ele>152.03</ele>
        <time>2012-09-15T12:50:50Z</time>
      </trkpt>
      <trkpt lat="49.32555" lon="3.28215">
        <ele>151.54</ele>
        <time>2012-09-15T12:51:05Z</time>
      </trkpt>
      <trkpt lat="49.32562" lon="3.28237">
        <ele>150.58</ele>
        <time>2012-09-15T12:51:09Z</time>
      </trkpt>
      <trkpt lat="49.32566" lon="3.28248">
        <ele>150.58</ele>
        <time>2012-09-15T12:51:11Z</time>
      </trkpt>
      <trkpt lat="49.32584" lon="3.2831">
        <ele>149.14</ele>
        <time>2012-09-15T12:51:21Z</time>
      </trkpt>
      <trkpt lat="49.32584" lon="3.28317">
        <ele>149.14</ele>
        <time>2012-09-15T12:51:22Z</time>
      </trkpt>
      <trkpt lat="49.32585" lon="3.28325">
        <ele>149.14</ele>
        <time>2012-09-15T12:51:23Z</time>
      </trkpt>
      <trkpt lat="49.32584" lon="3.28375">
        <ele>149.14</ele>
        <time>2012-09-15T12:51:29Z</time>
      </trkpt>
      <trkpt lat="49.32583" lon="3.28391">
        <ele>149.14</ele>
        <time>2012-09-15T12:51:31Z</time>
      </trkpt>
      <trkpt lat="49.32581" lon="3.28457">
        <ele>149.62</ele>
        <time>2012-09-15T12:51:39Z</time>
      </trkpt>
      <trkpt lat="49.3258" lon="3.28483">
        <ele>149.62</ele>
        <time>2012-09-15T12:51:42Z</time>
      </trkpt>
      <trkpt lat="49.3258" lon="3.28517">
        <ele>149.62</ele>
        <time>2012-09-15T12:51:46Z</time>
      </trkpt>
      <trkpt lat="49.32579" lon="3.2856">
        <ele>149.62</ele>
        <time>2012-09-15T12:51:51Z</time>
      </trkpt>
      <trkpt lat="49.3258" lon="3.28653">
        <ele>148.66</ele>
        <time>2012-09-15T12:52:02Z</time>
      </trkpt>
      <trkpt lat="49.32587" lon="3.28735">
        <ele>149.62</ele>
        <time>2012-09-15T12:52:12Z</time>
      </trkpt>
      <trkpt lat="49.3259" lon="3.28768">
        <ele>150.1</ele>
        <time>2012-09-15T12:52:16Z</time>
      </trkpt>
      <trkpt lat="49.326" lon="3.28842">
        <ele>150.1</ele>
        <time>2012-09-15T12:52:25Z</time>
      </trkpt>
      <trkpt lat="49.32614" lon="3.28947">
        <ele>148.18</ele>
        <time>2012-09-15T12:52:39Z</time>
      </trkpt>
      <trkpt lat="49.32615" lon="3.28953">
        <ele>147.7</ele>
        <time>2012-09-15T12:52:40Z</time>
      </trkpt>
      <trkpt lat="49.32625" lon="3.29012">
        <ele>148.66</ele>
        <time>2012-09-15T12:52:52Z</time>
      </trkpt>
      <trkpt lat="49.32627" lon="3.29016">
        <ele>147.7</ele>
        <time>2012-09-15T12:53:04Z</time>
      </trkpt>
      <trkpt lat="49.32627" lon="3.29016">
        <ele>146.74</ele>
        <time>2012-09-15T12:53:24Z</time>
      </trkpt>
      <trkpt lat="49.32627" lon="3.29017">
        <ele>145.78</ele>
        <time>2012-09-15T12:54:03Z</time>
      </trkpt>
      <trkpt lat="49.32627" lon="3.29017">
        <ele>145.78</ele>
        <time>2012-09-15T12:54:12Z</time>
      </trkpt>
      <trkpt lat="49.32616" lon="3.29018">
        <ele>144.82</ele>
        <time>2012-09-15T12:54:17Z</time>
      </trkpt>
      <trkpt lat="49.3257" lon="3.2903">
        <ele>143.37</ele>
        <time>2012-09-15T12:54:29Z</time>
      </trkpt>
      <trkpt lat="49.3252" lon="3.29047">
        <ele>143.85</ele>
        <time>2012-09-15T12:54:41Z</time>
      </trkpt>
      <trkpt lat="49.32475" lon="3.29061">
        <ele>144.82</ele>
        <time>2012-09-15T12:54:52Z</time>
      </trkpt>
      <trkpt lat="49.32463" lon="3.29062">
        <ele>145.78</ele>
        <time>2012-09-15T12:55:02Z</time>
      </trkpt>
      <trkpt lat="49.32463" lon="3.29061">
        <ele>146.74</ele>
        <time>2012-09-15T12:55:23Z</time>
      </trkpt>
      <trkpt lat="49.32464" lon="3.29047">
        <ele>146.74</ele>
        <time>2012-09-15T12:55:28Z</time>
      </trkpt>
      <trkpt lat="49.32448" lon="3.28985">
        <ele>146.26</ele>
        <time>2012-09-15T12:55:41Z</time>
      </trkpt>
      <trkpt lat="49.32446" lon="3.28979">
        <ele>146.74</ele>
        <time>2012-09-15T12:55:49Z</time>
      </trkpt>
      <trkpt lat="49.32449" lon="3.2899">
        <ele>146.74</ele>
        <time>2012-09-15T12:55:53Z</time>
      </trkpt>
      <trkpt lat="49.32466" lon="3.29043">
        <ele>147.7</ele>
        <time>2012-09-15T12:56:08Z</time>
      </trkpt>
      <trkpt lat="49.32472" lon="3.29045">
        <ele>147.22</ele>
        <time>2012-09-15T12:56:21Z</time>
      </trkpt>
      <trkpt lat="49.32472" lon="3.29046">
        <ele>146.74</ele>
        <time>2012-09-15T12:56:34Z</time>
      </trkpt>
      <trkpt lat="49.32472" lon="3.29046">
        <ele>146.74</ele>
        <time>2012-09-15T12:56:52Z</time>
      </trkpt>
      <trkpt lat="49.32473" lon="3.29046">
        <ele>147.22</ele>
        <time>2012-09-15T13:18:48Z</time>
      </trkpt>
      <trkpt lat="49.32472" lon="3.29044">
        <ele>145.3</ele>
        <time>2012-09-15T13:19:19Z</time>
      </trkpt>
      <trkpt lat="49.32471" lon="3.29044">
        <ele>146.26</ele>
        <time>2012-09-15T13:19:55Z</time>
      </trkpt>
      <trkpt lat="49.32471" lon="3.29047">
        <ele>144.82</ele>
        <time>2012-09-15T13:20:09Z</time>
      </trkpt>
      <trkpt lat="49.32472" lon="3.29046">
        <ele>144.82</ele>
        <time>2012-09-15T13:20:42Z</time>
      </trkpt>
      <trkpt lat="49.32472" lon="3.29047">
        <ele>145.3</ele>
        <time>2012-09-15T13:21:21Z</time>
      </trkpt>
      <trkpt lat="49.32473" lon="3.29048">
        <ele>145.78</ele>
        <time>2012-09-15T13:21:50Z</time>
      </trkpt>
      <trkpt lat="49.32471" lon="3.29049">
        <ele>145.78</ele>
        <time>2012-09-15T13:21:55Z</time>
      </trkpt>
      <trkpt lat="49.32469" lon="3.29058">
        <ele>145.78</ele>
        <time>2012-09-15T13:21:58Z</time>
      </trkpt>
      <trkpt lat="49.3246" lon="3.29071">
        <ele>146.26</ele>
        <time>2012-09-15T13:22:02Z</time>
      </trkpt>
      <trkpt lat="49.32438" lon="3.2911">
        <ele>146.26</ele>
        <time>2012-09-15T13:22:10Z</time>
      </trkpt>
      <trkpt lat="49.32428" lon="3.29157">
        <ele>146.26</ele>
        <time>2012-09-15T13:22:17Z</time>
      </trkpt>
      <trkpt lat="49.3241" lon="3.29266">
        <ele>146.26</ele>
        <time>2012-09-15T13:22:30Z</time>
      </trkpt>
      <trkpt lat="49.32387" lon="3.29383">
        <ele>146.74</ele>
        <time>2012-09-15T13:22:43Z</time>
      </trkpt>
      <trkpt lat="49.32365" lon="3.29501">
        <ele>146.74</ele>
        <time>2012-09-15T13:22:56Z</time>
      </trkpt>
      <trkpt lat="49.32345" lon="3.29606">
        <ele>146.74</ele>
        <time>2012-09-15T13:23:07Z</time>
      </trkpt>
      <trkpt lat="49.32324" lon="3.2971">
        <ele>146.74</ele>
        <time>2012-09-15T13:23:19Z</time>
      </trkpt>
      <trkpt lat="49.32304" lon="3.29816">
        <ele>146.74</ele>
        <time>2012-09-15T13:23:31Z</time>
      </trkpt>
      <trkpt lat="49.32284" lon="3.2992">
        <ele>145.78</ele>
        <time>2012-09-15T13:23:43Z</time>
      </trkpt>
      <trkpt lat="49.32275" lon="3.29968">
        <ele>145.3</ele>
        <time>2012-09-15T13:23:49Z</time>
      </trkpt>
      <trkpt lat="49.32256" lon="3.30064">
        <ele>145.3</ele>
        <time>2012-09-15T13:24:03Z</time>
      </trkpt>
      <trkpt lat="49.32241" lon="3.30146">
        <ele>146.74</ele>
        <time>2012-09-15T13:24:17Z</time>
      </trkpt>
      <trkpt lat="49.32226" lon="3.30216">
        <ele>148.18</ele>
        <time>2012-09-15T13:24:33Z</time>
      </trkpt>
      <trkpt lat="49.3222" lon="3.30246">
        <ele>148.66</ele>
        <time>2012-09-15T13:24:41Z</time>
      </trkpt>
      <trkpt lat="49.32216" lon="3.3025">
        <ele>148.18</ele>
        <time>2012-09-15T13:24:44Z</time>
      </trkpt>
      <trkpt lat="49.32195" lon="3.30258">
        <ele>146.74</ele>
        <time>2012-09-15T13:24:57Z</time>
      </trkpt>
      <trkpt lat="49.32174" lon="3.30251">
        <ele>143.85</ele>
        <time>2012-09-15T13:25:12Z</time>
      </trkpt>
      <trkpt lat="49.32158" lon="3.30244">
        <ele>142.41</ele>
        <time>2012-09-15T13:25:23Z</time>
      </trkpt>
      <trkpt lat="49.32157" lon="3.30243">
        <ele>141.93</ele>
        <time>2012-09-15T13:25:24Z</time>
      </trkpt>
      <trkpt lat="49.32156" lon="3.30242">
        <ele>141.45</ele>
        <time>2012-09-15T13:25:25Z</time>
      </trkpt>
      <trkpt lat="49.32154" lon="3.30242">
        <ele>141.45</ele>
        <time>2012-09-15T13:25:26Z</time>
      </trkpt>
      <trkpt lat="49.32152" lon="3.30241">
        <ele>141.45</ele>
        <time>2012-09-15T13:25:27Z</time>
      </trkpt>
      <trkpt lat="49.32151" lon="3.30239">
        <ele>140.97</ele>
        <time>2012-09-15T13:25:28Z</time>
      </trkpt>
      <trkpt lat="49.3215" lon="3.30238">
        <ele>140.49</ele>
        <time>2012-09-15T13:25:29Z</time>
      </trkpt>
      <trkpt lat="49.32117" lon="3.30228">
        <ele>137.61</ele>
        <time>2012-09-15T13:25:42Z</time>
      </trkpt>
      <trkpt lat="49.32094" lon="3.30216">
        <ele>136.64</ele>
        <time>2012-09-15T13:25:47Z</time>
      </trkpt>
      <trkpt lat="49.32089" lon="3.30214">
        <ele>136.64</ele>
        <time>2012-09-15T13:25:48Z</time>
      </trkpt>
      <trkpt lat="49.32084" lon="3.30212">
        <ele>136.16</ele>
        <time>2012-09-15T13:25:49Z</time>
      </trkpt>
      <trkpt lat="49.32018" lon="3.30183">
        <ele>134.72</ele>
        <time>2012-09-15T13:26:00Z</time>
      </trkpt>
      <trkpt lat="49.32012" lon="3.30177">
        <ele>134.72</ele>
        <time>2012-09-15T13:26:01Z</time>
      </trkpt>
      <trkpt lat="49.32007" lon="3.3017">
        <ele>134.72</ele>
        <time>2012-09-15T13:26:02Z</time>
      </trkpt>
      <trkpt lat="49.32003" lon="3.30162">
        <ele>134.24</ele>
        <time>2012-09-15T13:26:03Z</time>
      </trkpt>
      <trkpt lat="49.31998" lon="3.30152">
        <ele>134.24</ele>
        <time>2012-09-15T13:26:04Z</time>
      </trkpt>
      <trkpt lat="49.31995" lon="3.30142">
        <ele>133.76</ele>
        <time>2012-09-15T13:26:05Z</time>
      </trkpt>
      <trkpt lat="49.31992" lon="3.3013">
        <ele>133.76</ele>
        <time>2012-09-15T13:26:06Z</time>
      </trkpt>
      <trkpt lat="49.3199" lon="3.30119">
        <ele>133.28</ele>
        <time>2012-09-15T13:26:07Z</time>
      </trkpt>
      <trkpt lat="49.3199" lon="3.30106">
        <ele>133.28</ele>
        <time>2012-09-15T13:26:08Z</time>
      </trkpt>
      <trkpt lat="49.3199" lon="3.30093">
        <ele>132.8</ele>
        <time>2012-09-15T13:26:09Z</time>
      </trkpt>
      <trkpt lat="49.31991" lon="3.3008">
        <ele>132.8</ele>
        <time>2012-09-15T13:26:10Z</time>
      </trkpt>
      <trkpt lat="49.31993" lon="3.30067">
        <ele>132.32</ele>
        <time>2012-09-15T13:26:11Z</time>
      </trkpt>
      <trkpt lat="49.32002" lon="3.29896">
        <ele>129.43</ele>
        <time>2012-09-15T13:26:24Z</time>
      </trkpt>
      <trkpt lat="49.31998" lon="3.29868">
        <ele>128.95</ele>
        <time>2012-09-15T13:26:28Z</time>
      </trkpt>
      <trkpt lat="49.31995" lon="3.29866">
        <ele>128.95</ele>
        <time>2012-09-15T13:26:29Z</time>
      </trkpt>
      <trkpt lat="49.31993" lon="3.29866">
        <ele>128.95</ele>
        <time>2012-09-15T13:26:30Z</time>
      </trkpt>
      <trkpt lat="49.3199" lon="3.29867">
        <ele>128.95</ele>
        <time>2012-09-15T13:26:31Z</time>
      </trkpt>
      <trkpt lat="49.31884" lon="3.29898">
        <ele>126.07</ele>
        <time>2012-09-15T13:26:32Z</time>
      </trkpt>
      <trkpt lat="49.31869" lon="3.29893">
        <ele>130.88</ele>
        <time>2012-09-15T13:26:33Z</time>
      </trkpt>
      <trkpt lat="49.31856" lon="3.29889">
        <ele>132.8</ele>
        <time>2012-09-15T13:26:34Z</time>
      </trkpt>
      <trkpt lat="49.31845" lon="3.29883">
        <ele>134.24</ele>
        <time>2012-09-15T13:26:35Z</time>
      </trkpt>
      <trkpt lat="49.31834" lon="3.29877">
        <ele>136.16</ele>
        <time>2012-09-15T13:26:36Z</time>
      </trkpt>
      <trkpt lat="49.31824" lon="3.2987">
        <ele>137.61</ele>
        <time>2012-09-15T13:26:37Z</time>
      </trkpt>
      <trkpt lat="49.3176" lon="3.29815">
        <ele>136.64</ele>
        <time>2012-09-15T13:26:43Z</time>
      </trkpt>
      <trkpt lat="49.3175" lon="3.2981">
        <ele>135.2</ele>
        <time>2012-09-15T13:26:44Z</time>
      </trkpt>
      <trkpt lat="49.31738" lon="3.29807">
        <ele>135.2</ele>
        <time>2012-09-15T13:26:45Z</time>
      </trkpt>
      <trkpt lat="49.31712" lon="3.29803">
        <ele>133.76</ele>
        <time>2012-09-15T13:26:47Z</time>
      </trkpt>
      <trkpt lat="49.31701" lon="3.29808">
        <ele>131.84</ele>
        <time>2012-09-15T13:26:48Z</time>
      </trkpt>
      <trkpt lat="49.3169" lon="3.29813">
        <ele>130.88</ele>
        <time>2012-09-15T13:26:49Z</time>
      </trkpt>
      <trkpt lat="49.31679" lon="3.29821">
        <ele>129.43</ele>
        <time>2012-09-15T13:26:50Z</time>
      </trkpt>
      <trkpt lat="49.3167" lon="3.29831">
        <ele>127.99</ele>
        <time>2012-09-15T13:26:51Z</time>
      </trkpt>
      <trkpt lat="49.31661" lon="3.29842">
        <ele>125.59</ele>
        <time>2012-09-15T13:26:52Z</time>
      </trkpt>
      <trkpt lat="49.31652" lon="3.29852">
        <ele>123.19</ele>
        <time>2012-09-15T13:26:53Z</time>
      </trkpt>
      <trkpt lat="49.31566" lon="3.29894">
        <ele>116.46</ele>
        <time>2012-09-15T13:27:01Z</time>
      </trkpt>
      <trkpt lat="49.31461" lon="3.29952">
        <ele>106.36</ele>
        <time>2012-09-15T13:27:11Z</time>
      </trkpt>
      <trkpt lat="49.31404" lon="3.30003">
        <ele>93.87</ele>
        <time>2012-09-15T13:27:19Z</time>
      </trkpt>
      <trkpt lat="49.31402" lon="3.30006">
        <ele>91.46</ele>
        <time>2012-09-15T13:27:21Z</time>
      </trkpt>
      <trkpt lat="49.31398" lon="3.30005">
        <ele>90.5</ele>
        <time>2012-09-15T13:27:23Z</time>
      </trkpt>
      <trkpt lat="49.31396" lon="3.30006">
        <ele>90.5</ele>
        <time>2012-09-15T13:27:24Z</time>
      </trkpt>
      <trkpt lat="49.31394" lon="3.30009">
        <ele>90.02</ele>
        <time>2012-09-15T13:27:25Z</time>
      </trkpt>
      <trkpt lat="49.31392" lon="3.30011">
        <ele>89.54</ele>
        <time>2012-09-15T13:27:26Z</time>
      </trkpt>
      <trkpt lat="49.31389" lon="3.30014">
        <ele>89.54</ele>
        <time>2012-09-15T13:27:27Z</time>
      </trkpt>
      <trkpt lat="49.31357" lon="3.3008">
        <ele>87.14</ele>
        <time>2012-09-15T13:27:36Z</time>
      </trkpt>
      <trkpt lat="49.31338" lon="3.30114">
        <ele>86.18</ele>
        <time>2012-09-15T13:27:40Z</time>
      </trkpt>
      <trkpt lat="49.31332" lon="3.30117">
        <ele>85.69</ele>
        <time>2012-09-15T13:27:41Z</time>
      </trkpt>
      <trkpt lat="49.31326" lon="3.30117">
        <ele>85.21</ele>
        <time>2012-09-15T13:27:42Z</time>
      </trkpt>
      <trkpt lat="49.31321" lon="3.30116">
        <ele>85.21</ele>
        <time>2012-09-15T13:27:43Z</time>
      </trkpt>
      <trkpt lat="49.31315" lon="3.30112">
        <ele>84.73</ele>
        <time>2012-09-15T13:27:44Z</time>
      </trkpt>
      <trkpt lat="49.3131" lon="3.30107">
        <ele>84.25</ele>
        <time>2012-09-15T13:27:45Z</time>
      </trkpt>
      <trkpt lat="49.31306" lon="3.301">
        <ele>83.77</ele>
        <time>2012-09-15T13:27:46Z</time>
      </trkpt>
      <trkpt lat="49.31302" lon="3.3009">
        <ele>83.29</ele>
        <time>2012-09-15T13:27:47Z</time>
      </trkpt>
      <trkpt lat="49.31296" lon="3.30072">
        <ele>83.29</ele>
        <time>2012-09-15T13:27:48Z</time>
      </trkpt>
      <trkpt lat="49.3129" lon="3.30043">
        <ele>82.81</ele>
        <time>2012-09-15T13:27:50Z</time>
      </trkpt>
      <trkpt lat="49.31263" lon="3.29894">
        <ele>76.56</ele>
        <time>2012-09-15T13:28:03Z</time>
      </trkpt>
      <trkpt lat="49.31255" lon="3.29854">
        <ele>74.16</ele>
        <time>2012-09-15T13:28:08Z</time>
      </trkpt>
      <trkpt lat="49.31256" lon="3.29779">
        <ele>70.31</ele>
        <time>2012-09-15T13:28:21Z</time>
      </trkpt>
      <trkpt lat="49.31281" lon="3.2972">
        <ele>66.95</ele>
        <time>2012-09-15T13:28:34Z</time>
      </trkpt>
      <trkpt lat="49.31309" lon="3.29696">
        <ele>65.51</ele>
        <time>2012-09-15T13:28:41Z</time>
      </trkpt>
      <trkpt lat="49.31313" lon="3.29692">
        <ele>65.51</ele>
        <time>2012-09-15T13:28:42Z</time>
      </trkpt>
      <trkpt lat="49.31315" lon="3.29687">
        <ele>65.51</ele>
        <time>2012-09-15T13:28:43Z</time>
      </trkpt>
      <trkpt lat="49.31316" lon="3.29681">
        <ele>65.51</ele>
        <time>2012-09-15T13:28:44Z</time>
      </trkpt>
      <trkpt lat="49.31317" lon="3.29676">
        <ele>65.51</ele>
        <time>2012-09-15T13:28:45Z</time>
      </trkpt>
      <trkpt lat="49.31318" lon="3.2967">
        <ele>65.03</ele>
        <time>2012-09-15T13:28:46Z</time>
      </trkpt>
      <trkpt lat="49.31318" lon="3.29664">
        <ele>65.03</ele>
        <time>2012-09-15T13:28:47Z</time>
      </trkpt>
      <trkpt lat="49.31318" lon="3.29658">
        <ele>65.03</ele>
        <time>2012-09-15T13:28:48Z</time>
      </trkpt>
      <trkpt lat="49.31316" lon="3.29653">
        <ele>65.03</ele>
        <time>2012-09-15T13:28:49Z</time>
      </trkpt>
      <trkpt lat="49.31315" lon="3.29647">
        <ele>65.03</ele>
        <time>2012-09-15T13:28:50Z</time>
      </trkpt>
      <trkpt lat="49.31313" lon="3.29642">
        <ele>65.03</ele>
        <time>2012-09-15T13:28:51Z</time>
      </trkpt>
      <trkpt lat="49.3131" lon="3.29638">
        <ele>65.03</ele>
        <time>2012-09-15T13:28:52Z</time>
      </trkpt>
      <trkpt lat="49.31307" lon="3.29635">
        <ele>65.51</ele>
        <time>2012-09-15T13:28:53Z</time>
      </trkpt>
      <trkpt lat="49.31305" lon="3.29632">
        <ele>65.99</ele>
        <time>2012-09-15T13:28:54Z</time>
      </trkpt>
      <trkpt lat="49.31301" lon="3.29629">
        <ele>66.47</ele>
        <time>2012-09-15T13:28:55Z</time>
      </trkpt>
      <trkpt lat="49.31299" lon="3.29628">
        <ele>66.47</ele>
        <time>2012-09-15T13:28:56Z</time>
      </trkpt>
      <trkpt lat="49.31296" lon="3.29627">
        <ele>66.47</ele>
        <time>2012-09-15T13:28:57Z</time>
      </trkpt>
      <trkpt lat="49.31291" lon="3.29627">
        <ele>66.95</ele>
        <time>2012-09-15T13:28:58Z</time>
      </trkpt>
      <trkpt lat="49.31287" lon="3.29628">
        <ele>67.43</ele>
        <time>2012-09-15T13:28:59Z</time>
      </trkpt>
      <trkpt lat="49.31283" lon="3.29629">
        <ele>67.43</ele>
        <time>2012-09-15T13:29:00Z</time>
      </trkpt>
      <trkpt lat="49.31224" lon="3.29662">
        <ele>74.64</ele>
        <time>2012-09-15T13:29:12Z</time>
      </trkpt>
      <trkpt lat="49.3119" lon="3.29695">
        <ele>84.25</ele>
        <time>2012-09-15T13:29:23Z</time>
      </trkpt>
      <trkpt lat="49.31157" lon="3.29726">
        <ele>87.62</ele>
        <time>2012-09-15T13:29:34Z</time>
      </trkpt>
      <trkpt lat="49.31128" lon="3.29727">
        <ele>90.98</ele>
        <time>2012-09-15T13:29:44Z</time>
      </trkpt>
      <trkpt lat="49.31087" lon="3.29708">
        <ele>91.46</ele>
        <time>2012-09-15T13:29:58Z</time>
      </trkpt>
      <trkpt lat="49.31073" lon="3.29707">
        <ele>90.98</ele>
        <time>2012-09-15T13:30:02Z</time>
      </trkpt>
      <trkpt lat="49.31052" lon="3.29702">
        <ele>90.5</ele>
        <time>2012-09-15T13:30:06Z</time>
      </trkpt>
      <trkpt lat="49.31035" lon="3.29695">
        <ele>89.54</ele>
        <time>2012-09-15T13:30:09Z</time>
      </trkpt>
      <trkpt lat="49.31029" lon="3.29692">
        <ele>89.54</ele>
        <time>2012-09-15T13:30:10Z</time>
      </trkpt>
      <trkpt lat="49.31018" lon="3.29686">
        <ele>89.06</ele>
        <time>2012-09-15T13:30:12Z</time>
      </trkpt>
      <trkpt lat="49.30984" lon="3.29672">
        <ele>88.1</ele>
        <time>2012-09-15T13:30:18Z</time>
      </trkpt>
      <trkpt lat="49.30912" lon="3.29669">
        <ele>89.54</ele>
        <time>2012-09-15T13:30:31Z</time>
      </trkpt>
      <trkpt lat="49.30865" lon="3.29653">
        <ele>95.31</ele>
        <time>2012-09-15T13:30:42Z</time>
      </trkpt>
      <trkpt lat="49.30829" lon="3.29628">
        <ele>101.56</ele>
        <time>2012-09-15T13:30:52Z</time>
      </trkpt>
      <trkpt lat="49.30826" lon="3.29624">
        <ele>102.52</ele>
        <time>2012-09-15T13:30:53Z</time>
      </trkpt>
      <trkpt lat="49.30818" lon="3.29614">
        <ele>103.48</ele>
        <time>2012-09-15T13:30:55Z</time>
      </trkpt>
      <trkpt lat="49.30815" lon="3.2961">
        <ele>103.96</ele>
        <time>2012-09-15T13:30:56Z</time>
      </trkpt>
      <trkpt lat="49.30811" lon="3.29605">
        <ele>104.44</ele>
        <time>2012-09-15T13:30:57Z</time>
      </trkpt>
      <trkpt lat="49.30805" lon="3.29595">
        <ele>105.4</ele>
        <time>2012-09-15T13:30:59Z</time>
      </trkpt>
      <trkpt lat="49.30796" lon="3.29569">
        <ele>105.88</ele>
        <time>2012-09-15T13:31:03Z</time>
      </trkpt>
      <trkpt lat="49.30796" lon="3.29562">
        <ele>105.88</ele>
        <time>2012-09-15T13:31:04Z</time>
      </trkpt>
      <trkpt lat="49.30796" lon="3.29555">
        <ele>105.4</ele>
        <time>2012-09-15T13:31:05Z</time>
      </trkpt>
      <trkpt lat="49.30794" lon="3.29493">
        <ele>103.96</ele>
        <time>2012-09-15T13:31:17Z</time>
      </trkpt>
      <trkpt lat="49.30782" lon="3.29443">
        <ele>104.44</ele>
        <time>2012-09-15T13:31:28Z</time>
      </trkpt>
      <trkpt lat="49.30771" lon="3.29394">
        <ele>106.36</ele>
        <time>2012-09-15T13:31:39Z</time>
      </trkpt>
      <trkpt lat="49.30762" lon="3.29361">
        <ele>107.32</ele>
        <time>2012-09-15T13:31:51Z</time>
      </trkpt>
      <trkpt lat="49.30754" lon="3.29333">
        <ele>108.29</ele>
        <time>2012-09-15T13:32:02Z</time>
      </trkpt>
      <trkpt lat="49.30747" lon="3.293">
        <ele>109.25</ele>
        <time>2012-09-15T13:32:12Z</time>
      </trkpt>
      <trkpt lat="49.30736" lon="3.29264">
        <ele>110.21</ele>
        <time>2012-09-15T13:32:23Z</time>
      </trkpt>
      <trkpt lat="49.30727" lon="3.29227">
        <ele>115.5</ele>
        <time>2012-09-15T13:32:37Z</time>
      </trkpt>
      <trkpt lat="49.30717" lon="3.29201">
        <ele>123.19</ele>
        <time>2012-09-15T13:32:50Z</time>
      </trkpt>
      <trkpt lat="49.30713" lon="3.29178">
        <ele>128.95</ele>
        <time>2012-09-15T13:33:01Z</time>
      </trkpt>
      <trkpt lat="49.30711" lon="3.29137">
        <ele>130.4</ele>
        <time>2012-09-15T13:33:14Z</time>
      </trkpt>
      <trkpt lat="49.3071" lon="3.29101">
        <ele>130.88</ele>
        <time>2012-09-15T13:33:25Z</time>
      </trkpt>
      <trkpt lat="49.3071" lon="3.29065">
        <ele>130.88</ele>
        <time>2012-09-15T13:33:34Z</time>
      </trkpt>
      <trkpt lat="49.30694" lon="3.29027">
        <ele>130.88</ele>
        <time>2012-09-15T13:33:45Z</time>
      </trkpt>
      <trkpt lat="49.30677" lon="3.28987">
        <ele>130.4</ele>
        <time>2012-09-15T13:33:58Z</time>
      </trkpt>
      <trkpt lat="49.30665" lon="3.28953">
        <ele>132.32</ele>
        <time>2012-09-15T13:34:09Z</time>
      </trkpt>
      <trkpt lat="49.30654" lon="3.28919">
        <ele>134.72</ele>
        <time>2012-09-15T13:34:20Z</time>
      </trkpt>
      <trkpt lat="49.30642" lon="3.28885">
        <ele>136.16</ele>
        <time>2012-09-15T13:34:30Z</time>
      </trkpt>
      <trkpt lat="49.30629" lon="3.28848">
        <ele>136.64</ele>
        <time>2012-09-15T13:34:41Z</time>
      </trkpt>
      <trkpt lat="49.30617" lon="3.28813">
        <ele>139.53</ele>
        <time>2012-09-15T13:34:51Z</time>
      </trkpt>
      <trkpt lat="49.30606" lon="3.28781">
        <ele>141.93</ele>
        <time>2012-09-15T13:35:01Z</time>
      </trkpt>
      <trkpt lat="49.30591" lon="3.28737">
        <ele>142.41</ele>
        <time>2012-09-15T13:35:13Z</time>
      </trkpt>
      <trkpt lat="49.30576" lon="3.28693">
        <ele>142.89</ele>
        <time>2012-09-15T13:35:22Z</time>
      </trkpt>
      <trkpt lat="49.30557" lon="3.28643">
        <ele>143.37</ele>
        <time>2012-09-15T13:35:32Z</time>
      </trkpt>
      <trkpt lat="49.30543" lon="3.28597">
        <ele>144.34</ele>
        <time>2012-09-15T13:35:45Z</time>
      </trkpt>
      <trkpt lat="49.30538" lon="3.28581">
        <ele>144.34</ele>
        <time>2012-09-15T13:35:50Z</time>
      </trkpt>
      <trkpt lat="49.30537" lon="3.28579">
        <ele>144.34</ele>
        <time>2012-09-15T13:35:51Z</time>
      </trkpt>
      <trkpt lat="49.30536" lon="3.28577">
        <ele>144.34</ele>
        <time>2012-09-15T13:35:52Z</time>
      </trkpt>
      <trkpt lat="49.30535" lon="3.28574">
        <ele>144.34</ele>
        <time>2012-09-15T13:35:53Z</time>
      </trkpt>
      <trkpt lat="49.30534" lon="3.28571">
        <ele>144.34</ele>
        <time>2012-09-15T13:35:54Z</time>
      </trkpt>
      <trkpt lat="49.30534" lon="3.28568">
        <ele>144.34</ele>
        <time>2012-09-15T13:35:55Z</time>
      </trkpt>
      <trkpt lat="49.30533" lon="3.28566">
        <ele>144.34</ele>
        <time>2012-09-15T13:35:56Z</time>
      </trkpt>
      <trkpt lat="49.30532" lon="3.28563">
        <ele>144.34</ele>
        <time>2012-09-15T13:35:57Z</time>
      </trkpt>
      <trkpt lat="49.30531" lon="3.2856">
        <ele>144.82</ele>
        <time>2012-09-15T13:35:58Z</time>
      </trkpt>
      <trkpt lat="49.30542" lon="3.28525">
        <ele>146.26</ele>
        <time>2012-09-15T13:36:08Z</time>
      </trkpt>
      <trkpt lat="49.30554" lon="3.2851">
        <ele>146.74</ele>
        <time>2012-09-15T13:36:12Z</time>
      </trkpt>
      <trkpt lat="49.30565" lon="3.28498">
        <ele>146.74</ele>
        <time>2012-09-15T13:36:15Z</time>
      </trkpt>
      <trkpt lat="49.30628" lon="3.28409">
        <ele>146.74</ele>
        <time>2012-09-15T13:36:30Z</time>
      </trkpt>
      <trkpt lat="49.30641" lon="3.28388">
        <ele>146.74</ele>
        <time>2012-09-15T13:36:33Z</time>
      </trkpt>
      <trkpt lat="49.30646" lon="3.28382">
        <ele>146.26</ele>
        <time>2012-09-15T13:36:34Z</time>
      </trkpt>
      <trkpt lat="49.30682" lon="3.28325">
        <ele>146.26</ele>
        <time>2012-09-15T13:36:43Z</time>
      </trkpt>
      <trkpt lat="49.30686" lon="3.28319">
        <ele>146.26</ele>
        <time>2012-09-15T13:36:44Z</time>
      </trkpt>
      <trkpt lat="49.3069" lon="3.28313">
        <ele>146.26</ele>
        <time>2012-09-15T13:36:45Z</time>
      </trkpt>
      <trkpt lat="49.30731" lon="3.28252">
        <ele>146.74</ele>
        <time>2012-09-15T13:36:56Z</time>
      </trkpt>
      <trkpt lat="49.3078" lon="3.28178">
        <ele>147.7</ele>
        <time>2012-09-15T13:37:09Z</time>
      </trkpt>
      <trkpt lat="49.30825" lon="3.28113">
        <ele>149.62</ele>
        <time>2012-09-15T13:37:21Z</time>
      </trkpt>
      <trkpt lat="49.30839" lon="3.28091">
        <ele>150.58</ele>
        <time>2012-09-15T13:37:25Z</time>
      </trkpt>
      <trkpt lat="49.30874" lon="3.28038">
        <ele>151.54</ele>
        <time>2012-09-15T13:37:34Z</time>
      </trkpt>
      <trkpt lat="49.30878" lon="3.28032">
        <ele>151.54</ele>
        <time>2012-09-15T13:37:35Z</time>
      </trkpt>
      <trkpt lat="49.30882" lon="3.28026">
        <ele>151.54</ele>
        <time>2012-09-15T13:37:36Z</time>
      </trkpt>
      <trkpt lat="49.30886" lon="3.2802">
        <ele>151.54</ele>
        <time>2012-09-15T13:37:37Z</time>
      </trkpt>
      <trkpt lat="49.30891" lon="3.28014">
        <ele>151.54</ele>
        <time>2012-09-15T13:37:38Z</time>
      </trkpt>
      <trkpt lat="49.30943" lon="3.27942">
        <ele>152.51</ele>
        <time>2012-09-15T13:37:50Z</time>
      </trkpt>
      <trkpt lat="49.30996" lon="3.27868">
        <ele>153.47</ele>
        <time>2012-09-15T13:38:03Z</time>
      </trkpt>
      <trkpt lat="49.31041" lon="3.2781">
        <ele>152.51</ele>
        <time>2012-09-15T13:38:15Z</time>
      </trkpt>
      <trkpt lat="49.31054" lon="3.27794">
        <ele>152.51</ele>
        <time>2012-09-15T13:38:19Z</time>
      </trkpt>
      <trkpt lat="49.311" lon="3.27739">
        <ele>152.99</ele>
        <time>2012-09-15T13:38:31Z</time>
      </trkpt>
      <trkpt lat="49.31129" lon="3.27703">
        <ele>152.99</ele>
        <time>2012-09-15T13:38:38Z</time>
      </trkpt>
      <trkpt lat="49.3118" lon="3.27639">
        <ele>152.03</ele>
        <time>2012-09-15T13:38:49Z</time>
      </trkpt>
      <trkpt lat="49.31234" lon="3.27571">
        <ele>151.06</ele>
        <time>2012-09-15T13:39:00Z</time>
      </trkpt>
      <trkpt lat="49.31238" lon="3.27565">
        <ele>150.58</ele>
        <time>2012-09-15T13:39:01Z</time>
      </trkpt>
      <trkpt lat="49.31262" lon="3.27534">
        <ele>150.58</ele>
        <time>2012-09-15T13:39:06Z</time>
      </trkpt>
      <trkpt lat="49.31267" lon="3.27528">
        <ele>150.58</ele>
        <time>2012-09-15T13:39:07Z</time>
      </trkpt>
      <trkpt lat="49.31285" lon="3.27504">
        <ele>150.1</ele>
        <time>2012-09-15T13:39:11Z</time>
      </trkpt>
      <trkpt lat="49.31336" lon="3.27443">
        <ele>149.62</ele>
        <time>2012-09-15T13:39:22Z</time>
      </trkpt>
      <trkpt lat="49.3134" lon="3.27437">
        <ele>149.62</ele>
        <time>2012-09-15T13:39:23Z</time>
      </trkpt>
      <trkpt lat="49.31345" lon="3.27432">
        <ele>149.62</ele>
        <time>2012-09-15T13:39:24Z</time>
      </trkpt>
      <trkpt lat="49.31394" lon="3.27371">
        <ele>149.62</ele>
        <time>2012-09-15T13:39:35Z</time>
      </trkpt>
      <trkpt lat="49.31451" lon="3.27304">
        <ele>148.66</ele>
        <time>2012-09-15T13:39:49Z</time>
      </trkpt>
      <trkpt lat="49.315" lon="3.27241">
        <ele>148.18</ele>
        <time>2012-09-15T13:40:00Z</time>
      </trkpt>
      <trkpt lat="49.3155" lon="3.27178">
        <ele>147.22</ele>
        <time>2012-09-15T13:40:10Z</time>
      </trkpt>
      <trkpt lat="49.31555" lon="3.27171">
        <ele>147.22</ele>
        <time>2012-09-15T13:40:11Z</time>
      </trkpt>
      <trkpt lat="49.31601" lon="3.27111">
        <ele>146.26</ele>
        <time>2012-09-15T13:40:21Z</time>
      </trkpt>
      <trkpt lat="49.3161" lon="3.27101">
        <ele>146.26</ele>
        <time>2012-09-15T13:40:23Z</time>
      </trkpt>
      <trkpt lat="49.31615" lon="3.27096">
        <ele>146.26</ele>
        <time>2012-09-15T13:40:24Z</time>
      </trkpt>
      <trkpt lat="49.31664" lon="3.27034">
        <ele>145.3</ele>
        <time>2012-09-15T13:40:37Z</time>
      </trkpt>
      <trkpt lat="49.31679" lon="3.27013">
        <ele>145.3</ele>
        <time>2012-09-15T13:40:41Z</time>
      </trkpt>
      <trkpt lat="49.31683" lon="3.27008">
        <ele>145.3</ele>
        <time>2012-09-15T13:40:42Z</time>
      </trkpt>
      <trkpt lat="49.31708" lon="3.2698">
        <ele>145.3</ele>
        <time>2012-09-15T13:40:48Z</time>
      </trkpt>
      <trkpt lat="49.31747" lon="3.26924">
        <ele>145.78</ele>
        <time>2012-09-15T13:41:03Z</time>
      </trkpt>
      <trkpt lat="49.31752" lon="3.26913">
        <ele>145.78</ele>
        <time>2012-09-15T13:41:05Z</time>
      </trkpt>
      <trkpt lat="49.31784" lon="3.26825">
        <ele>147.22</ele>
        <time>2012-09-15T13:41:18Z</time>
      </trkpt>
      <trkpt lat="49.31823" lon="3.26724">
        <ele>149.14</ele>
        <time>2012-09-15T13:41:33Z</time>
      </trkpt>
      <trkpt lat="49.31835" lon="3.26702">
        <ele>149.62</ele>
        <time>2012-09-15T13:41:37Z</time>
      </trkpt>
      <trkpt lat="49.3186" lon="3.26656">
        <ele>151.06</ele>
        <time>2012-09-15T13:41:46Z</time>
      </trkpt>
      <trkpt lat="49.31894" lon="3.26604">
        <ele>152.03</ele>
        <time>2012-09-15T13:41:59Z</time>
      </trkpt>
      <trkpt lat="49.31899" lon="3.26584">
        <ele>152.51</ele>
        <time>2012-09-15T13:42:05Z</time>
      </trkpt>
      <trkpt lat="49.31898" lon="3.26582">
        <ele>152.99</ele>
        <time>2012-09-15T13:42:06Z</time>
      </trkpt>
      <trkpt lat="49.31896" lon="3.26581">
        <ele>152.99</ele>
        <time>2012-09-15T13:42:07Z</time>
      </trkpt>
      <trkpt lat="49.31894" lon="3.26579">
        <ele>152.99</ele>
        <time>2012-09-15T13:42:08Z</time>
      </trkpt>
      <trkpt lat="49.31892" lon="3.26579">
        <ele>153.47</ele>
        <time>2012-09-15T13:42:09Z</time>
      </trkpt>
      <trkpt lat="49.31843" lon="3.2654">
        <ele>155.39</ele>
        <time>2012-09-15T13:42:21Z</time>
      </trkpt>
      <trkpt lat="49.31798" lon="3.2651">
        <ele>158.27</ele>
        <time>2012-09-15T13:42:29Z</time>
      </trkpt>
      <trkpt lat="49.31784" lon="3.26497">
        <ele>159.24</ele>
        <time>2012-09-15T13:42:31Z</time>
      </trkpt>
      <trkpt lat="49.31778" lon="3.26494">
        <ele>159.72</ele>
        <time>2012-09-15T13:42:32Z</time>
      </trkpt>
      <trkpt lat="49.31771" lon="3.26491">
        <ele>160.2</ele>
        <time>2012-09-15T13:42:33Z</time>
      </trkpt>
      <trkpt lat="49.31765" lon="3.26491">
        <ele>160.2</ele>
        <time>2012-09-15T13:42:34Z</time>
      </trkpt>
      <trkpt lat="49.31758" lon="3.26492">
        <ele>160.68</ele>
        <time>2012-09-15T13:42:35Z</time>
      </trkpt>
      <trkpt lat="49.31752" lon="3.26492">
        <ele>161.16</ele>
        <time>2012-09-15T13:42:36Z</time>
      </trkpt>
      <trkpt lat="49.31745" lon="3.26491">
        <ele>161.16</ele>
        <time>2012-09-15T13:42:37Z</time>
      </trkpt>
      <trkpt lat="49.31739" lon="3.26489">
        <ele>161.64</ele>
        <time>2012-09-15T13:42:38Z</time>
      </trkpt>
      <trkpt lat="49.31732" lon="3.26485">
        <ele>162.12</ele>
        <time>2012-09-15T13:42:39Z</time>
      </trkpt>
      <trkpt lat="49.31725" lon="3.26481">
        <ele>162.6</ele>
        <time>2012-09-15T13:42:40Z</time>
      </trkpt>
      <trkpt lat="49.31639" lon="3.26411">
        <ele>163.56</ele>
        <time>2012-09-15T13:42:54Z</time>
      </trkpt>
      <trkpt lat="49.31582" lon="3.2636">
        <ele>161.64</ele>
        <time>2012-09-15T13:43:05Z</time>
      </trkpt>
      <trkpt lat="49.31515" lon="3.26255">
        <ele>158.75</ele>
        <time>2012-09-15T13:43:20Z</time>
      </trkpt>
      <trkpt lat="49.31477" lon="3.26159">
        <ele>157.31</ele>
        <time>2012-09-15T13:43:32Z</time>
      </trkpt>
      <trkpt lat="49.31452" lon="3.26011">
        <ele>155.39</ele>
        <time>2012-09-15T13:43:47Z</time>
      </trkpt>
      <trkpt lat="49.31448" lon="3.25876">
        <ele>154.91</ele>
        <time>2012-09-15T13:44:00Z</time>
      </trkpt>
      <trkpt lat="49.31443" lon="3.25775">
        <ele>153.95</ele>
        <time>2012-09-15T13:44:11Z</time>
      </trkpt>
      <trkpt lat="49.31437" lon="3.25716">
        <ele>154.43</ele>
        <time>2012-09-15T13:44:18Z</time>
      </trkpt>
      <trkpt lat="49.31435" lon="3.25708">
        <ele>154.43</ele>
        <time>2012-09-15T13:44:19Z</time>
      </trkpt>
      <trkpt lat="49.31433" lon="3.257">
        <ele>154.43</ele>
        <time>2012-09-15T13:44:20Z</time>
      </trkpt>
      <trkpt lat="49.3143" lon="3.25693">
        <ele>154.43</ele>
        <time>2012-09-15T13:44:21Z</time>
      </trkpt>
      <trkpt lat="49.31426" lon="3.25686">
        <ele>153.95</ele>
        <time>2012-09-15T13:44:22Z</time>
      </trkpt>
      <trkpt lat="49.31372" lon="3.25607">
        <ele>153.47</ele>
        <time>2012-09-15T13:44:35Z</time>
      </trkpt>
      <trkpt lat="49.3131" lon="3.25522">
        <ele>152.51</ele>
        <time>2012-09-15T13:44:53Z</time>
      </trkpt>
      <trkpt lat="49.31255" lon="3.25449">
        <ele>152.03</ele>
        <time>2012-09-15T13:45:09Z</time>
      </trkpt>
      <trkpt lat="49.31196" lon="3.25368">
        <ele>151.06</ele>
        <time>2012-09-15T13:45:24Z</time>
      </trkpt>
      <trkpt lat="49.31132" lon="3.25275">
        <ele>150.1</ele>
        <time>2012-09-15T13:45:38Z</time>
      </trkpt>
      <trkpt lat="49.31054" lon="3.25181">
        <ele>149.14</ele>
        <time>2012-09-15T13:45:51Z</time>
      </trkpt>
      <trkpt lat="49.30983" lon="3.25092">
        <ele>149.62</ele>
        <time>2012-09-15T13:46:04Z</time>
      </trkpt>
      <trkpt lat="49.30919" lon="3.25015">
        <ele>151.54</ele>
        <time>2012-09-15T13:46:18Z</time>
      </trkpt>
      <trkpt lat="49.30845" lon="3.24924">
        <ele>150.58</ele>
        <time>2012-09-15T13:46:36Z</time>
      </trkpt>
      <trkpt lat="49.30764" lon="3.24823">
        <ele>143.37</ele>
        <time>2012-09-15T13:46:52Z</time>
      </trkpt>
      <trkpt lat="49.30689" lon="3.24735">
        <ele>140.49</ele>
        <time>2012-09-15T13:47:07Z</time>
      </trkpt>
      <trkpt lat="49.30639" lon="3.24675">
        <ele>141.93</ele>
        <time>2012-09-15T13:47:19Z</time>
      </trkpt>
      <trkpt lat="49.30588" lon="3.24613">
        <ele>143.85</ele>
        <time>2012-09-15T13:47:32Z</time>
      </trkpt>
      <trkpt lat="49.30538" lon="3.24551">
        <ele>146.74</ele>
        <time>2012-09-15T13:47:44Z</time>
      </trkpt>
      <trkpt lat="49.30471" lon="3.24468">
        <ele>150.58</ele>
        <time>2012-09-15T13:48:01Z</time>
      </trkpt>
      <trkpt lat="49.3044" lon="3.2443">
        <ele>149.62</ele>
        <time>2012-09-15T13:48:13Z</time>
      </trkpt>
      <trkpt lat="49.30406" lon="3.2439">
        <ele>149.14</ele>
        <time>2012-09-15T13:48:23Z</time>
      </trkpt>
      <trkpt lat="49.30352" lon="3.24325">
        <ele>152.03</ele>
        <time>2012-09-15T13:48:37Z</time>
      </trkpt>
      <trkpt lat="49.30303" lon="3.24283">
        <ele>152.99</ele>
        <time>2012-09-15T13:48:52Z</time>
      </trkpt>
      <trkpt lat="49.30242" lon="3.24239">
        <ele>152.03</ele>
        <time>2012-09-15T13:49:08Z</time>
      </trkpt>
      <trkpt lat="49.30169" lon="3.24203">
        <ele>149.62</ele>
        <time>2012-09-15T13:49:23Z</time>
      </trkpt>
      <trkpt lat="49.30085" lon="3.24165">
        <ele>146.74</ele>
        <time>2012-09-15T13:49:36Z</time>
      </trkpt>
      <trkpt lat="49.29966" lon="3.24112">
        <ele>142.89</ele>
        <time>2012-09-15T13:49:54Z</time>
      </trkpt>
      <trkpt lat="49.29886" lon="3.24075">
        <ele>141.45</ele>
        <time>2012-09-15T13:50:05Z</time>
      </trkpt>
      <trkpt lat="49.2977" lon="3.24011">
        <ele>137.61</ele>
        <time>2012-09-15T13:50:21Z</time>
      </trkpt>
      <trkpt lat="49.29758" lon="3.24005">
        <ele>137.13</ele>
        <time>2012-09-15T13:50:23Z</time>
      </trkpt>
      <trkpt lat="49.29747" lon="3.24003">
        <ele>137.13</ele>
        <time>2012-09-15T13:50:25Z</time>
      </trkpt>
      <trkpt lat="49.29744" lon="3.24008">
        <ele>136.64</ele>
        <time>2012-09-15T13:50:26Z</time>
      </trkpt>
      <trkpt lat="49.29743" lon="3.24015">
        <ele>136.64</ele>
        <time>2012-09-15T13:50:27Z</time>
      </trkpt>
      <trkpt lat="49.29742" lon="3.24021">
        <ele>136.16</ele>
        <time>2012-09-15T13:50:28Z</time>
      </trkpt>
      <trkpt lat="49.29741" lon="3.24026">
        <ele>136.16</ele>
        <time>2012-09-15T13:50:29Z</time>
      </trkpt>
      <trkpt lat="49.29739" lon="3.24032">
        <ele>136.16</ele>
        <time>2012-09-15T13:50:30Z</time>
      </trkpt>
      <trkpt lat="49.29737" lon="3.24036">
        <ele>136.16</ele>
        <time>2012-09-15T13:50:31Z</time>
      </trkpt>
      <trkpt lat="49.29735" lon="3.24041">
        <ele>135.68</ele>
        <time>2012-09-15T13:50:32Z</time>
      </trkpt>
      <trkpt lat="49.29733" lon="3.24046">
        <ele>135.68</ele>
        <time>2012-09-15T13:50:33Z</time>
      </trkpt>
      <trkpt lat="49.29716" lon="3.24097">
        <ele>134.72</ele>
        <time>2012-09-15T13:50:42Z</time>
      </trkpt>
      <trkpt lat="49.29704" lon="3.2413">
        <ele>132.8</ele>
        <time>2012-09-15T13:50:53Z</time>
      </trkpt>
      <trkpt lat="49.29703" lon="3.24133">
        <ele>132.32</ele>
        <time>2012-09-15T13:50:54Z</time>
      </trkpt>
      <trkpt lat="49.29704" lon="3.24135">
        <ele>132.32</ele>
        <time>2012-09-15T13:50:55Z</time>
      </trkpt>
      <trkpt lat="49.29706" lon="3.24133">
        <ele>131.84</ele>
        <time>2012-09-15T13:50:56Z</time>
      </trkpt>
      <trkpt lat="49.29707" lon="3.2413">
        <ele>131.84</ele>
        <time>2012-09-15T13:50:57Z</time>
      </trkpt>
      <trkpt lat="49.29708" lon="3.24128">
        <ele>131.84</ele>
        <time>2012-09-15T13:50:58Z</time>
      </trkpt>
      <trkpt lat="49.29708" lon="3.24125">
        <ele>131.84</ele>
        <time>2012-09-15T13:50:59Z</time>
      </trkpt>
      <trkpt lat="49.29708" lon="3.24123">
        <ele>132.32</ele>
        <time>2012-09-15T13:51:00Z</time>
      </trkpt>
      <trkpt lat="49.29709" lon="3.24121">
        <ele>132.32</ele>
        <time>2012-09-15T13:51:01Z</time>
      </trkpt>
      <trkpt lat="49.2971" lon="3.24118">
        <ele>132.32</ele>
        <time>2012-09-15T13:51:02Z</time>
      </trkpt>
      <trkpt lat="49.2971" lon="3.24116">
        <ele>132.32</ele>
        <time>2012-09-15T13:51:03Z</time>
      </trkpt>
      <trkpt lat="49.29731" lon="3.24073">
        <ele>132.8</ele>
        <time>2012-09-15T13:51:17Z</time>
      </trkpt>
      <trkpt lat="49.29732" lon="3.24068">
        <ele>132.8</ele>
        <time>2012-09-15T13:51:18Z</time>
      </trkpt>
      <trkpt lat="49.29747" lon="3.24024">
        <ele>133.28</ele>
        <time>2012-09-15T13:51:25Z</time>
      </trkpt>
      <trkpt lat="49.29748" lon="3.24017">
        <ele>133.28</ele>
        <time>2012-09-15T13:51:26Z</time>
      </trkpt>
      <trkpt lat="49.29748" lon="3.24009">
        <ele>133.28</ele>
        <time>2012-09-15T13:51:27Z</time>
      </trkpt>
      <trkpt lat="49.29746" lon="3.24003">
        <ele>133.28</ele>
        <time>2012-09-15T13:51:28Z</time>
      </trkpt>
      <trkpt lat="49.29744" lon="3.23997">
        <ele>133.28</ele>
        <time>2012-09-15T13:51:29Z</time>
      </trkpt>
      <trkpt lat="49.29741" lon="3.23993">
        <ele>133.76</ele>
        <time>2012-09-15T13:51:30Z</time>
      </trkpt>
      <trkpt lat="49.29737" lon="3.23989">
        <ele>133.28</ele>
        <time>2012-09-15T13:51:31Z</time>
      </trkpt>
      <trkpt lat="49.29733" lon="3.23986">
        <ele>133.28</ele>
        <time>2012-09-15T13:51:32Z</time>
      </trkpt>
      <trkpt lat="49.29728" lon="3.23983">
        <ele>133.28</ele>
        <time>2012-09-15T13:51:33Z</time>
      </trkpt>
      <trkpt lat="49.29634" lon="3.23929">
        <ele>135.2</ele>
        <time>2012-09-15T13:51:50Z</time>
      </trkpt>
      <trkpt lat="49.29609" lon="3.23912">
        <ele>136.64</ele>
        <time>2012-09-15T13:51:55Z</time>
      </trkpt>
      <trkpt lat="49.29604" lon="3.23908">
        <ele>137.13</ele>
        <time>2012-09-15T13:51:56Z</time>
      </trkpt>
      <trkpt lat="49.29551" lon="3.23861">
        <ele>140.49</ele>
        <time>2012-09-15T13:52:07Z</time>
      </trkpt>
      <trkpt lat="49.29546" lon="3.23856">
        <ele>140.97</ele>
        <time>2012-09-15T13:52:08Z</time>
      </trkpt>
      <trkpt lat="49.29541" lon="3.23851">
        <ele>141.45</ele>
        <time>2012-09-15T13:52:09Z</time>
      </trkpt>
      <trkpt lat="49.29537" lon="3.23847">
        <ele>141.45</ele>
        <time>2012-09-15T13:52:10Z</time>
      </trkpt>
      <trkpt lat="49.29469" lon="3.23778">
        <ele>145.3</ele>
        <time>2012-09-15T13:52:25Z</time>
      </trkpt>
      <trkpt lat="49.29456" lon="3.2377">
        <ele>146.26</ele>
        <time>2012-09-15T13:52:28Z</time>
      </trkpt>
      <trkpt lat="49.29399" lon="3.23743">
        <ele>146.74</ele>
        <time>2012-09-15T13:52:40Z</time>
      </trkpt>
      <trkpt lat="49.29312" lon="3.23703">
        <ele>143.85</ele>
        <time>2012-09-15T13:52:55Z</time>
      </trkpt>
      <trkpt lat="49.29251" lon="3.23678">
        <ele>143.37</ele>
        <time>2012-09-15T13:53:05Z</time>
      </trkpt>
      <trkpt lat="49.29186" lon="3.23656">
        <ele>143.37</ele>
        <time>2012-09-15T13:53:16Z</time>
      </trkpt>
      <trkpt lat="49.29106" lon="3.23662">
        <ele>140.49</ele>
        <time>2012-09-15T13:53:29Z</time>
      </trkpt>
      <trkpt lat="49.29023" lon="3.2366">
        <ele>137.13</ele>
        <time>2012-09-15T13:53:40Z</time>
      </trkpt>
      <trkpt lat="49.28935" lon="3.23598">
        <ele>132.8</ele>
        <time>2012-09-15T13:53:52Z</time>
      </trkpt>
      <trkpt lat="49.28853" lon="3.23533">
        <ele>129.43</ele>
        <time>2012-09-15T13:54:05Z</time>
      </trkpt>
      <trkpt lat="49.28784" lon="3.2349">
        <ele>129.92</ele>
        <time>2012-09-15T13:54:19Z</time>
      </trkpt>
      <trkpt lat="49.28732" lon="3.23461">
        <ele>132.32</ele>
        <time>2012-09-15T13:54:31Z</time>
      </trkpt>
      <trkpt lat="49.28699" lon="3.23441">
        <ele>134.24</ele>
        <time>2012-09-15T13:54:39Z</time>
      </trkpt>
      <trkpt lat="49.28695" lon="3.23438">
        <ele>134.72</ele>
        <time>2012-09-15T13:54:40Z</time>
      </trkpt>
      <trkpt lat="49.28686" lon="3.23433">
        <ele>135.68</ele>
        <time>2012-09-15T13:54:42Z</time>
      </trkpt>
      <trkpt lat="49.28682" lon="3.23431">
        <ele>136.16</ele>
        <time>2012-09-15T13:54:43Z</time>
      </trkpt>
      <trkpt lat="49.28639" lon="3.23407">
        <ele>136.16</ele>
        <time>2012-09-15T13:54:53Z</time>
      </trkpt>
      <trkpt lat="49.28596" lon="3.23382">
        <ele>137.61</ele>
        <time>2012-09-15T13:55:05Z</time>
      </trkpt>
      <trkpt lat="49.28556" lon="3.23356">
        <ele>138.57</ele>
        <time>2012-09-15T13:55:16Z</time>
      </trkpt>
      <trkpt lat="49.28551" lon="3.23353">
        <ele>138.57</ele>
        <time>2012-09-15T13:55:17Z</time>
      </trkpt>
      <trkpt lat="49.28476" lon="3.23309">
        <ele>138.57</ele>
        <time>2012-09-15T13:55:32Z</time>
      </trkpt>
      <trkpt lat="49.28405" lon="3.23275">
        <ele>135.68</ele>
        <time>2012-09-15T13:55:47Z</time>
      </trkpt>
      <trkpt lat="49.28395" lon="3.2327">
        <ele>134.72</ele>
        <time>2012-09-15T13:55:49Z</time>
      </trkpt>
      <trkpt lat="49.28386" lon="3.23266">
        <ele>134.24</ele>
        <time>2012-09-15T13:55:51Z</time>
      </trkpt>
      <trkpt lat="49.28369" lon="3.23256">
        <ele>133.28</ele>
        <time>2012-09-15T13:55:55Z</time>
      </trkpt>
      <trkpt lat="49.28356" lon="3.2325">
        <ele>132.8</ele>
        <time>2012-09-15T13:55:58Z</time>
      </trkpt>
      <trkpt lat="49.28352" lon="3.23248">
        <ele>132.8</ele>
        <time>2012-09-15T13:55:59Z</time>
      </trkpt>
      <trkpt lat="49.28348" lon="3.23246">
        <ele>132.8</ele>
        <time>2012-09-15T13:56:00Z</time>
      </trkpt>
      <trkpt lat="49.28344" lon="3.23244">
        <ele>132.32</ele>
        <time>2012-09-15T13:56:01Z</time>
      </trkpt>
      <trkpt lat="49.2834" lon="3.23242">
        <ele>132.32</ele>
        <time>2012-09-15T13:56:02Z</time>
      </trkpt>
      <trkpt lat="49.28336" lon="3.23241">
        <ele>132.32</ele>
        <time>2012-09-15T13:56:03Z</time>
      </trkpt>
      <trkpt lat="49.2825" lon="3.23199">
        <ele>128.47</ele>
        <time>2012-09-15T13:56:22Z</time>
      </trkpt>
      <trkpt lat="49.28231" lon="3.23191">
        <ele>127.99</ele>
        <time>2012-09-15T13:56:26Z</time>
      </trkpt>
      <trkpt lat="49.28226" lon="3.23188">
        <ele>127.51</ele>
        <time>2012-09-15T13:56:27Z</time>
      </trkpt>
      <trkpt lat="49.28221" lon="3.23186">
        <ele>127.51</ele>
        <time>2012-09-15T13:56:28Z</time>
      </trkpt>
      <trkpt lat="49.28217" lon="3.23182">
        <ele>127.51</ele>
        <time>2012-09-15T13:56:29Z</time>
      </trkpt>
      <trkpt lat="49.28213" lon="3.23178">
        <ele>127.03</ele>
        <time>2012-09-15T13:56:30Z</time>
      </trkpt>
      <trkpt lat="49.28211" lon="3.23172">
        <ele>127.03</ele>
        <time>2012-09-15T13:56:31Z</time>
      </trkpt>
      <trkpt lat="49.2821" lon="3.23166">
        <ele>127.03</ele>
        <time>2012-09-15T13:56:32Z</time>
      </trkpt>
      <trkpt lat="49.28211" lon="3.2316">
        <ele>126.55</ele>
        <time>2012-09-15T13:56:33Z</time>
      </trkpt>
      <trkpt lat="49.28214" lon="3.23156">
        <ele>126.55</ele>
        <time>2012-09-15T13:56:34Z</time>
      </trkpt>
      <trkpt lat="49.28218" lon="3.23154">
        <ele>126.55</ele>
        <time>2012-09-15T13:56:35Z</time>
      </trkpt>
      <trkpt lat="49.28223" lon="3.23152">
        <ele>126.07</ele>
        <time>2012-09-15T13:56:36Z</time>
      </trkpt>
      <trkpt lat="49.28227" lon="3.2315">
        <ele>126.07</ele>
        <time>2012-09-15T13:56:37Z</time>
      </trkpt>
      <trkpt lat="49.28231" lon="3.23149">
        <ele>126.07</ele>
        <time>2012-09-15T13:56:38Z</time>
      </trkpt>
      <trkpt lat="49.28234" lon="3.23147">
        <ele>126.07</ele>
        <time>2012-09-15T13:56:39Z</time>
      </trkpt>
      <trkpt lat="49.28242" lon="3.23142">
        <ele>127.03</ele>
        <time>2012-09-15T13:56:50Z</time>
      </trkpt>
      <trkpt lat="49.2824" lon="3.23143">
        <ele>127.03</ele>
        <time>2012-09-15T13:56:52Z</time>
      </trkpt>
      <trkpt lat="49.28212" lon="3.23161">
        <ele>125.59</ele>
        <time>2012-09-15T13:57:01Z</time>
      </trkpt>
      <trkpt lat="49.28208" lon="3.23164">
        <ele>125.59</ele>
        <time>2012-09-15T13:57:02Z</time>
      </trkpt>
      <trkpt lat="49.28203" lon="3.23166">
        <ele>125.11</ele>
        <time>2012-09-15T13:57:03Z</time>
      </trkpt>
      <trkpt lat="49.28199" lon="3.23167">
        <ele>125.11</ele>
        <time>2012-09-15T13:57:04Z</time>
      </trkpt>
      <trkpt lat="49.28194" lon="3.23168">
        <ele>125.11</ele>
        <time>2012-09-15T13:57:05Z</time>
      </trkpt>
      <trkpt lat="49.28189" lon="3.23168">
        <ele>125.11</ele>
        <time>2012-09-15T13:57:06Z</time>
      </trkpt>
      <trkpt lat="49.28121" lon="3.23154">
        <ele>122.71</ele>
        <time>2012-09-15T13:57:18Z</time>
      </trkpt>
      <trkpt lat="49.28115" lon="3.2315">
        <ele>122.71</ele>
        <time>2012-09-15T13:57:19Z</time>
      </trkpt>
      <trkpt lat="49.28109" lon="3.23144">
        <ele>122.22</ele>
        <time>2012-09-15T13:57:20Z</time>
      </trkpt>
      <trkpt lat="49.28103" lon="3.23138">
        <ele>122.22</ele>
        <time>2012-09-15T13:57:21Z</time>
      </trkpt>
      <trkpt lat="49.28097" lon="3.23132">
        <ele>121.74</ele>
        <time>2012-09-15T13:57:22Z</time>
      </trkpt>
      <trkpt lat="49.28091" lon="3.23128">
        <ele>121.74</ele>
        <time>2012-09-15T13:57:23Z</time>
      </trkpt>
      <trkpt lat="49.28085" lon="3.23124">
        <ele>121.26</ele>
        <time>2012-09-15T13:57:24Z</time>
      </trkpt>
      <trkpt lat="49.28079" lon="3.23117">
        <ele>121.26</ele>
        <time>2012-09-15T13:57:25Z</time>
      </trkpt>
      <trkpt lat="49.28073" lon="3.2311">
        <ele>120.78</ele>
        <time>2012-09-15T13:57:26Z</time>
      </trkpt>
      <trkpt lat="49.28002" lon="3.23019">
        <ele>117.9</ele>
        <time>2012-09-15T13:57:37Z</time>
      </trkpt>
      <trkpt lat="49.27944" lon="3.22941">
        <ele>114.53</ele>
        <time>2012-09-15T13:57:45Z</time>
      </trkpt>
      <trkpt lat="49.27858" lon="3.22843">
        <ele>109.73</ele>
        <time>2012-09-15T13:57:56Z</time>
      </trkpt>
      <trkpt lat="49.2784" lon="3.2283">
        <ele>109.25</ele>
        <time>2012-09-15T13:57:58Z</time>
      </trkpt>
      <trkpt lat="49.27801" lon="3.22812">
        <ele>107.81</ele>
        <time>2012-09-15T13:58:02Z</time>
      </trkpt>
      <trkpt lat="49.27791" lon="3.2281">
        <ele>107.32</ele>
        <time>2012-09-15T13:58:03Z</time>
      </trkpt>
      <trkpt lat="49.27738" lon="3.22806">
        <ele>105.88</ele>
        <time>2012-09-15T13:58:08Z</time>
      </trkpt>
      <trkpt lat="49.27728" lon="3.22802">
        <ele>105.4</ele>
        <time>2012-09-15T13:58:09Z</time>
      </trkpt>
      <trkpt lat="49.27708" lon="3.22794">
        <ele>104.44</ele>
        <time>2012-09-15T13:58:11Z</time>
      </trkpt>
      <trkpt lat="49.2769" lon="3.22783">
        <ele>103.48</ele>
        <time>2012-09-15T13:58:13Z</time>
      </trkpt>
      <trkpt lat="49.27673" lon="3.22768">
        <ele>103</ele>
        <time>2012-09-15T13:58:15Z</time>
      </trkpt>
      <trkpt lat="49.27592" lon="3.22679">
        <ele>100.6</ele>
        <time>2012-09-15T13:58:27Z</time>
      </trkpt>
      <trkpt lat="49.2754" lon="3.2257">
        <ele>100.11</ele>
        <time>2012-09-15T13:58:37Z</time>
      </trkpt>
      <trkpt lat="49.27528" lon="3.2251">
        <ele>100.11</ele>
        <time>2012-09-15T13:58:41Z</time>
      </trkpt>
      <trkpt lat="49.27528" lon="3.224">
        <ele>100.11</ele>
        <time>2012-09-15T13:58:47Z</time>
      </trkpt>
      <trkpt lat="49.27531" lon="3.22346">
        <ele>99.63</ele>
        <time>2012-09-15T13:58:50Z</time>
      </trkpt>
      <trkpt lat="49.27538" lon="3.22255">
        <ele>99.15</ele>
        <time>2012-09-15T13:58:55Z</time>
      </trkpt>
      <trkpt lat="49.27535" lon="3.22237">
        <ele>98.67</ele>
        <time>2012-09-15T13:58:56Z</time>
      </trkpt>
      <trkpt lat="49.27529" lon="3.22224">
        <ele>98.19</ele>
        <time>2012-09-15T13:58:57Z</time>
      </trkpt>
      <trkpt lat="49.2752" lon="3.22214">
        <ele>98.19</ele>
        <time>2012-09-15T13:58:58Z</time>
      </trkpt>
      <trkpt lat="49.27509" lon="3.22206">
        <ele>97.71</ele>
        <time>2012-09-15T13:58:59Z</time>
      </trkpt>
      <trkpt lat="49.27499" lon="3.222">
        <ele>97.23</ele>
        <time>2012-09-15T13:59:00Z</time>
      </trkpt>
      <trkpt lat="49.27434" lon="3.22166">
        <ele>96.75</ele>
        <time>2012-09-15T13:59:08Z</time>
      </trkpt>
      <trkpt lat="49.27395" lon="3.22142">
        <ele>98.19</ele>
        <time>2012-09-15T13:59:19Z</time>
      </trkpt>
      <trkpt lat="49.2739" lon="3.22141">
        <ele>94.83</ele>
        <time>2012-09-15T13:59:30Z</time>
      </trkpt>
      <trkpt lat="49.2737" lon="3.22095">
        <ele>94.35</ele>
        <time>2012-09-15T13:59:42Z</time>
      </trkpt>
      <trkpt lat="49.27344" lon="3.2203">
        <ele>96.27</ele>
        <time>2012-09-15T13:59:58Z</time>
      </trkpt>
      <trkpt lat="49.27331" lon="3.22011">
        <ele>95.79</ele>
        <time>2012-09-15T14:00:05Z</time>
      </trkpt>
      <trkpt lat="49.27324" lon="3.22006">
        <ele>96.75</ele>
        <time>2012-09-15T14:00:09Z</time>
      </trkpt>
      <trkpt lat="49.27319" lon="3.22007">
        <ele>97.23</ele>
        <time>2012-09-15T14:00:11Z</time>
      </trkpt>
      <trkpt lat="49.27313" lon="3.22008">
        <ele>88.58</ele>
        <time>2012-09-15T14:00:26Z</time>
      </trkpt>
      <trkpt lat="49.27314" lon="3.22008">
        <ele>88.58</ele>
        <time>2012-09-15T14:00:58Z</time>
      </trkpt>
      <trkpt lat="49.27314" lon="3.22008">
        <ele>86.66</ele>
        <time>2012-09-15T14:01:30Z</time>
      </trkpt>
      <trkpt lat="49.27314" lon="3.22008">
        <ele>85.69</ele>
        <time>2012-09-15T14:01:58Z</time>
      </trkpt>
      <trkpt lat="49.27313" lon="3.22009">
        <ele>85.21</ele>
        <time>2012-09-15T14:02:20Z</time>
      </trkpt>
      <trkpt lat="49.27312" lon="3.22011">
        <ele>85.21</ele>
        <time>2012-09-15T14:02:26Z</time>
      </trkpt>
      <trkpt lat="49.27311" lon="3.22029">
        <ele>82.81</ele>
        <time>2012-09-15T14:02:39Z</time>
      </trkpt>
      <trkpt lat="49.27312" lon="3.22029">
        <ele>81.37</ele>
        <time>2012-09-15T14:03:13Z</time>
      </trkpt>
      <trkpt lat="49.27313" lon="3.22029">
        <ele>81.85</ele>
        <time>2012-09-15T14:03:35Z</time>
      </trkpt>
      <trkpt lat="49.27312" lon="3.22023">
        <ele>82.33</ele>
        <time>2012-09-15T14:03:40Z</time>
      </trkpt>
      <trkpt lat="49.27312" lon="3.22011">
        <ele>83.77</ele>
        <time>2012-09-15T14:03:50Z</time>
      </trkpt>
      <trkpt lat="49.27313" lon="3.2201">
        <ele>84.25</ele>
        <time>2012-09-15T14:04:11Z</time>
      </trkpt>
      <trkpt lat="49.27313" lon="3.22009">
        <ele>84.73</ele>
        <time>2012-09-15T14:04:12Z</time>
      </trkpt>
      <trkpt lat="49.27324" lon="3.21981">
        <ele>87.62</ele>
        <time>2012-09-15T14:04:27Z</time>
      </trkpt>
      <trkpt lat="49.27349" lon="3.21939">
        <ele>90.5</ele>
        <time>2012-09-15T14:04:40Z</time>
      </trkpt>
      <trkpt lat="49.27375" lon="3.21874">
        <ele>93.39</ele>
        <time>2012-09-15T14:04:55Z</time>
      </trkpt>
      <trkpt lat="49.27398" lon="3.21811">
        <ele>86.66</ele>
        <time>2012-09-15T14:05:08Z</time>
      </trkpt>
      <trkpt lat="49.27407" lon="3.21784">
        <ele>85.21</ele>
        <time>2012-09-15T14:05:13Z</time>
      </trkpt>
      <trkpt lat="49.27407" lon="3.21777">
        <ele>85.21</ele>
        <time>2012-09-15T14:05:14Z</time>
      </trkpt>
      <trkpt lat="49.27409" lon="3.21744">
        <ele>85.21</ele>
        <time>2012-09-15T14:05:18Z</time>
      </trkpt>
      <trkpt lat="49.27408" lon="3.21633">
        <ele>85.69</ele>
        <time>2012-09-15T14:05:30Z</time>
      </trkpt>
      <trkpt lat="49.27409" lon="3.21625">
        <ele>85.69</ele>
        <time>2012-09-15T14:05:31Z</time>
      </trkpt>
      <trkpt lat="49.2741" lon="3.21617">
        <ele>85.69</ele>
        <time>2012-09-15T14:05:32Z</time>
      </trkpt>
      <trkpt lat="49.27413" lon="3.21611">
        <ele>86.18</ele>
        <time>2012-09-15T14:05:33Z</time>
      </trkpt>
      <trkpt lat="49.27427" lon="3.21606">
        <ele>86.18</ele>
        <time>2012-09-15T14:05:36Z</time>
      </trkpt>
      <trkpt lat="49.2751" lon="3.21637">
        <ele>86.66</ele>
        <time>2012-09-15T14:05:48Z</time>
      </trkpt>
      <trkpt lat="49.27524" lon="3.21641">
        <ele>86.66</ele>
        <time>2012-09-15T14:05:50Z</time>
      </trkpt>
      <trkpt lat="49.27575" lon="3.21614">
        <ele>87.14</ele>
        <time>2012-09-15T14:05:58Z</time>
      </trkpt>
      <trkpt lat="49.27584" lon="3.21599">
        <ele>87.62</ele>
        <time>2012-09-15T14:06:00Z</time>
      </trkpt>
      <trkpt lat="49.27609" lon="3.21542">
        <ele>87.62</ele>
        <time>2012-09-15T14:06:08Z</time>
      </trkpt>
      <trkpt lat="49.27616" lon="3.21523">
        <ele>88.1</ele>
        <time>2012-09-15T14:06:11Z</time>
      </trkpt>
      <trkpt lat="49.27628" lon="3.21495">
        <ele>88.58</ele>
        <time>2012-09-15T14:06:16Z</time>
      </trkpt>
      <trkpt lat="49.27652" lon="3.21459">
        <ele>88.1</ele>
        <time>2012-09-15T14:06:23Z</time>
      </trkpt>
      <trkpt lat="49.27681" lon="3.21434">
        <ele>87.62</ele>
        <time>2012-09-15T14:06:29Z</time>
      </trkpt>
      <trkpt lat="49.2772" lon="3.21425">
        <ele>87.62</ele>
        <time>2012-09-15T14:06:36Z</time>
      </trkpt>
      <trkpt lat="49.27748" lon="3.21427">
        <ele>88.1</ele>
        <time>2012-09-15T14:06:44Z</time>
      </trkpt>
      <trkpt lat="49.27746" lon="3.21429">
        <ele>88.1</ele>
        <time>2012-09-15T14:07:01Z</time>
      </trkpt>
      <trkpt lat="49.27747" lon="3.21427">
        <ele>89.06</ele>
        <time>2012-09-15T14:07:17Z</time>
      </trkpt>
      <trkpt lat="49.27747" lon="3.21424">
        <ele>90.98</ele>
        <time>2012-09-15T14:07:46Z</time>
      </trkpt>
      <trkpt lat="49.27748" lon="3.21423">
        <ele>92.42</ele>
        <time>2012-09-15T14:08:11Z</time>
      </trkpt>
      <trkpt lat="49.27748" lon="3.21423">
        <ele>92.42</ele>
        <time>2012-09-15T14:08:34Z</time>
      </trkpt>
      <trkpt lat="49.27747" lon="3.21424">
        <ele>92.9</ele>
        <time>2012-09-15T14:08:53Z</time>
      </trkpt>
      <trkpt lat="49.27748" lon="3.21426">
        <ele>92.42</ele>
        <time>2012-09-15T14:09:23Z</time>
      </trkpt>
      <trkpt lat="49.27748" lon="3.21426">
        <ele>90.98</ele>
        <time>2012-09-15T14:09:48Z</time>
      </trkpt>
      <trkpt lat="49.27748" lon="3.21426">
        <ele>91.46</ele>
        <time>2012-09-15T14:10:06Z</time>
      </trkpt>
      <trkpt lat="49.27739" lon="3.21427">
        <ele>91.46</ele>
        <time>2012-09-15T14:10:11Z</time>
      </trkpt>
      <trkpt lat="49.27721" lon="3.21424">
        <ele>90.5</ele>
        <time>2012-09-15T14:10:15Z</time>
      </trkpt>
      <trkpt lat="49.27669" lon="3.21442">
        <ele>89.54</ele>
        <time>2012-09-15T14:10:24Z</time>
      </trkpt>
      <trkpt lat="49.27617" lon="3.21515">
        <ele>89.06</ele>
        <time>2012-09-15T14:10:37Z</time>
      </trkpt>
      <trkpt lat="49.27575" lon="3.21606">
        <ele>87.14</ele>
        <time>2012-09-15T14:10:50Z</time>
      </trkpt>
      <trkpt lat="49.27562" lon="3.21627">
        <ele>86.66</ele>
        <time>2012-09-15T14:10:53Z</time>
      </trkpt>
      <trkpt lat="49.27515" lon="3.21646">
        <ele>86.18</ele>
        <time>2012-09-15T14:11:02Z</time>
      </trkpt>
      <trkpt lat="49.27422" lon="3.21612">
        <ele>86.18</ele>
        <time>2012-09-15T14:11:20Z</time>
      </trkpt>
      <trkpt lat="49.27413" lon="3.21607">
        <ele>86.66</ele>
        <time>2012-09-15T14:11:22Z</time>
      </trkpt>
      <trkpt lat="49.2741" lon="3.21602">
        <ele>87.14</ele>
        <time>2012-09-15T14:11:23Z</time>
      </trkpt>
      <trkpt lat="49.27408" lon="3.21597">
        <ele>87.14</ele>
        <time>2012-09-15T14:11:24Z</time>
      </trkpt>
      <trkpt lat="49.27406" lon="3.21592">
        <ele>87.14</ele>
        <time>2012-09-15T14:11:25Z</time>
      </trkpt>
      <trkpt lat="49.27405" lon="3.21586">
        <ele>87.14</ele>
        <time>2012-09-15T14:11:26Z</time>
      </trkpt>
      <trkpt lat="49.27399" lon="3.21552">
        <ele>87.62</ele>
        <time>2012-09-15T14:11:31Z</time>
      </trkpt>
      <trkpt lat="49.27364" lon="3.21454">
        <ele>90.5</ele>
        <time>2012-09-15T14:11:46Z</time>
      </trkpt>
      <trkpt lat="49.27328" lon="3.21346">
        <ele>95.31</ele>
        <time>2012-09-15T14:12:00Z</time>
      </trkpt>
      <trkpt lat="49.27283" lon="3.21221">
        <ele>103.48</ele>
        <time>2012-09-15T14:12:18Z</time>
      </trkpt>
      <trkpt lat="49.27261" lon="3.21142">
        <ele>107.32</ele>
        <time>2012-09-15T14:12:31Z</time>
      </trkpt>
      <trkpt lat="49.27247" lon="3.21087">
        <ele>110.69</ele>
        <time>2012-09-15T14:12:42Z</time>
      </trkpt>
      <trkpt lat="49.27229" lon="3.2103">
        <ele>113.57</ele>
        <time>2012-09-15T14:12:55Z</time>
      </trkpt>
      <trkpt lat="49.27209" lon="3.20961">
        <ele>114.53</ele>
        <time>2012-09-15T14:13:08Z</time>
      </trkpt>
      <trkpt lat="49.2719" lon="3.20908">
        <ele>113.57</ele>
        <time>2012-09-15T14:13:22Z</time>
      </trkpt>
      <trkpt lat="49.27178" lon="3.20873">
        <ele>117.42</ele>
        <time>2012-09-15T14:13:37Z</time>
      </trkpt>
      <trkpt lat="49.27159" lon="3.20808">
        <ele>127.03</ele>
        <time>2012-09-15T14:13:52Z</time>
      </trkpt>
      <trkpt lat="49.27148" lon="3.207">
        <ele>130.4</ele>
        <time>2012-09-15T14:14:11Z</time>
      </trkpt>
      <trkpt lat="49.27167" lon="3.20639">
        <ele>123.19</ele>
        <time>2012-09-15T14:14:26Z</time>
      </trkpt>
      <trkpt lat="49.27168" lon="3.20632">
        <ele>122.22</ele>
        <time>2012-09-15T14:14:29Z</time>
      </trkpt>
      <trkpt lat="49.27167" lon="3.2063">
        <ele>122.22</ele>
        <time>2012-09-15T14:14:30Z</time>
      </trkpt>
      <trkpt lat="49.27161" lon="3.20622">
        <ele>122.71</ele>
        <time>2012-09-15T14:14:34Z</time>
      </trkpt>
      <trkpt lat="49.27158" lon="3.20613">
        <ele>124.15</ele>
        <time>2012-09-15T14:14:37Z</time>
      </trkpt>
      <trkpt lat="49.27151" lon="3.20608">
        <ele>125.59</ele>
        <time>2012-09-15T14:14:41Z</time>
      </trkpt>
      <trkpt lat="49.27142" lon="3.2061">
        <ele>129.43</ele>
        <time>2012-09-15T14:14:52Z</time>
      </trkpt>
      <trkpt lat="49.27144" lon="3.20612">
        <ele>130.4</ele>
        <time>2012-09-15T14:15:03Z</time>
      </trkpt>
      <trkpt lat="49.27146" lon="3.20615">
        <ele>132.8</ele>
        <time>2012-09-15T14:15:12Z</time>
      </trkpt>
      <trkpt lat="49.27145" lon="3.20605">
        <ele>133.76</ele>
        <time>2012-09-15T14:15:25Z</time>
      </trkpt>
      <trkpt lat="49.27147" lon="3.2058">
        <ele>127.51</ele>
        <time>2012-09-15T14:15:41Z</time>
      </trkpt>
      <trkpt lat="49.27143" lon="3.20576">
        <ele>126.07</ele>
        <time>2012-09-15T14:16:01Z</time>
      </trkpt>
      <trkpt lat="49.27159" lon="3.20587">
        <ele>126.55</ele>
        <time>2012-09-15T14:30:34Z</time>
      </trkpt>
      <trkpt lat="49.2715" lon="3.20585">
        <ele>117.9</ele>
        <time>2012-09-15T14:30:49Z</time>
      </trkpt>
      <trkpt lat="49.27149" lon="3.20582">
        <ele>116.94</ele>
        <time>2012-09-15T14:31:17Z</time>
      </trkpt>
      <trkpt lat="49.27145" lon="3.20577">
        <ele>117.9</ele>
        <time>2012-09-15T14:31:32Z</time>
      </trkpt>
      <trkpt lat="49.27149" lon="3.20582">
        <ele>118.38</ele>
        <time>2012-09-15T14:31:47Z</time>
      </trkpt>
      <trkpt lat="49.27149" lon="3.20589">
        <ele>119.34</ele>
        <time>2012-09-15T14:32:05Z</time>
      </trkpt>
      <trkpt lat="49.27139" lon="3.20614">
        <ele>119.82</ele>
        <time>2012-09-15T14:32:25Z</time>
      </trkpt>
      <trkpt lat="49.27136" lon="3.20616">
        <ele>122.22</ele>
        <time>2012-09-15T14:32:36Z</time>
      </trkpt>
      <trkpt lat="49.27141" lon="3.20638">
        <ele>122.71</ele>
        <time>2012-09-15T14:32:42Z</time>
      </trkpt>
      <trkpt lat="49.27147" lon="3.20642">
        <ele>123.19</ele>
        <time>2012-09-15T14:32:44Z</time>
      </trkpt>
      <trkpt lat="49.2715" lon="3.20641">
        <ele>122.71</ele>
        <time>2012-09-15T14:32:45Z</time>
      </trkpt>
      <trkpt lat="49.27159" lon="3.20635">
        <ele>123.19</ele>
        <time>2012-09-15T14:32:50Z</time>
      </trkpt>
      <trkpt lat="49.27162" lon="3.20635">
        <ele>123.67</ele>
        <time>2012-09-15T14:32:59Z</time>
      </trkpt>
      <trkpt lat="49.27162" lon="3.20636">
        <ele>123.19</ele>
        <time>2012-09-15T14:33:00Z</time>
      </trkpt>
      <trkpt lat="49.27161" lon="3.20638">
        <ele>123.19</ele>
        <time>2012-09-15T14:33:01Z</time>
      </trkpt>
      <trkpt lat="49.27136" lon="3.20693">
        <ele>121.26</ele>
        <time>2012-09-15T14:33:11Z</time>
      </trkpt>
      <trkpt lat="49.27135" lon="3.20703">
        <ele>121.26</ele>
        <time>2012-09-15T14:33:12Z</time>
      </trkpt>
      <trkpt lat="49.27135" lon="3.20713">
        <ele>120.78</ele>
        <time>2012-09-15T14:33:13Z</time>
      </trkpt>
      <trkpt lat="49.27163" lon="3.20857">
        <ele>119.82</ele>
        <time>2012-09-15T14:33:25Z</time>
      </trkpt>
      <trkpt lat="49.27229" lon="3.21087">
        <ele>115.98</ele>
        <time>2012-09-15T14:33:40Z</time>
      </trkpt>
      <trkpt lat="49.27301" lon="3.21298">
        <ele>109.25</ele>
        <time>2012-09-15T14:33:53Z</time>
      </trkpt>
      <trkpt lat="49.27363" lon="3.21462">
        <ele>102.04</ele>
        <time>2012-09-15T14:34:06Z</time>
      </trkpt>
      <trkpt lat="49.27405" lon="3.21582">
        <ele>96.27</ele>
        <time>2012-09-15T14:34:17Z</time>
      </trkpt>
      <trkpt lat="49.27407" lon="3.21595">
        <ele>95.79</ele>
        <time>2012-09-15T14:34:18Z</time>
      </trkpt>
      <trkpt lat="49.27409" lon="3.21607">
        <ele>95.31</ele>
        <time>2012-09-15T14:34:19Z</time>
      </trkpt>
      <trkpt lat="49.27413" lon="3.21618">
        <ele>94.83</ele>
        <time>2012-09-15T14:34:20Z</time>
      </trkpt>
      <trkpt lat="49.27418" lon="3.21625">
        <ele>94.83</ele>
        <time>2012-09-15T14:34:21Z</time>
      </trkpt>
      <trkpt lat="49.27431" lon="3.21634">
        <ele>95.31</ele>
        <time>2012-09-15T14:34:23Z</time>
      </trkpt>
      <trkpt lat="49.27497" lon="3.21647">
        <ele>96.27</ele>
        <time>2012-09-15T14:34:34Z</time>
      </trkpt>
      <trkpt lat="49.27556" lon="3.21635">
        <ele>89.54</ele>
        <time>2012-09-15T14:34:47Z</time>
      </trkpt>
      <trkpt lat="49.27577" lon="3.21611">
        <ele>88.1</ele>
        <time>2012-09-15T14:34:58Z</time>
      </trkpt>
      <trkpt lat="49.27583" lon="3.21597">
        <ele>87.62</ele>
        <time>2012-09-15T14:35:05Z</time>
      </trkpt>
      <trkpt lat="49.27587" lon="3.21592">
        <ele>87.62</ele>
        <time>2012-09-15T14:35:09Z</time>
      </trkpt>
      <trkpt lat="49.27597" lon="3.21567">
        <ele>86.66</ele>
        <time>2012-09-15T14:35:17Z</time>
      </trkpt>
      <trkpt lat="49.27606" lon="3.21541">
        <ele>86.66</ele>
        <time>2012-09-15T14:35:21Z</time>
      </trkpt>
      <trkpt lat="49.27646" lon="3.2147">
        <ele>88.1</ele>
        <time>2012-09-15T14:35:32Z</time>
      </trkpt>
      <trkpt lat="49.27659" lon="3.21455">
        <ele>88.1</ele>
        <time>2012-09-15T14:35:35Z</time>
      </trkpt>
      <trkpt lat="49.27666" lon="3.21445">
        <ele>88.58</ele>
        <time>2012-09-15T14:35:37Z</time>
      </trkpt>
      <trkpt lat="49.27713" lon="3.21421">
        <ele>89.54</ele>
        <time>2012-09-15T14:35:47Z</time>
      </trkpt>
      <trkpt lat="49.27749" lon="3.21422">
        <ele>90.98</ele>
        <time>2012-09-15T14:35:59Z</time>
      </trkpt>
      <trkpt lat="49.2775" lon="3.21421">
        <ele>90.02</ele>
        <time>2012-09-15T14:36:12Z</time>
      </trkpt>
      <trkpt lat="49.27751" lon="3.21419">
        <ele>89.06</ele>
        <time>2012-09-15T14:36:25Z</time>
      </trkpt>
      <trkpt lat="49.27754" lon="3.21409">
        <ele>87.62</ele>
        <time>2012-09-15T14:36:37Z</time>
      </trkpt>
      <trkpt lat="49.27755" lon="3.21395">
        <ele>88.58</ele>
        <time>2012-09-15T14:36:47Z</time>
      </trkpt>
      <trkpt lat="49.27755" lon="3.21395">
        <ele>88.1</ele>
        <time>2012-09-15T14:36:57Z</time>
      </trkpt>
      <trkpt lat="49.27751" lon="3.21396">
        <ele>88.1</ele>
        <time>2012-09-15T14:37:10Z</time>
      </trkpt>
      <trkpt lat="49.27751" lon="3.21388">
        <ele>88.1</ele>
        <time>2012-09-15T14:37:22Z</time>
      </trkpt>
    </trkseg>
  </trk>
</gpx>